<?xml version="1.0" encoding="UTF-8" standalone="no" ?>
<gpx xmlns="http://www.topografix.com/GPX/1/1" xmlns:xsi="http://www.w3.org/2001/XMLSchema-instance" xsi:schemaLocation="http://www.topografix.com/GPX/1/1 http://www.topografix.com/GPX/1/1/gpx.xsd" version="1.1" creator="VisuGPX - https://www.visugpx.com">
  <metadata>
    <name>Gageac petite foulée</name>
    <desc><![CDATA[vendredi soir après le bureau...]]></desc>
  </metadata>
  <trk>
    <name><![CDATA[Track 001]]></name>
    <desc><![CDATA[19 avr. 2013  6:33 pm]]></desc>
    <trkseg>
      <trkpt lat="44.82838" lon="0.33038">
        <ele>36.135</ele>
        <time>2013-04-19T16:33:38Z</time>
      </trkpt>
      <trkpt lat="44.82826" lon="0.3305">
        <ele>36.129</ele>
        <time>2013-04-19T16:33:46Z</time>
      </trkpt>
      <trkpt lat="44.82826" lon="0.3305">
        <ele>36.129</ele>
        <time>2013-04-19T16:33:50Z</time>
      </trkpt>
      <trkpt lat="44.82825" lon="0.33063">
        <ele>36.125</ele>
        <time>2013-04-19T16:33:51Z</time>
      </trkpt>
      <trkpt lat="44.82825" lon="0.33078">
        <ele>35.031</ele>
        <time>2013-04-19T16:33:56Z</time>
      </trkpt>
      <trkpt lat="44.82827" lon="0.33091">
        <ele>32.205</ele>
        <time>2013-04-19T16:34:00Z</time>
      </trkpt>
      <trkpt lat="44.82831" lon="0.33105">
        <ele>29.26</ele>
        <time>2013-04-19T16:34:05Z</time>
      </trkpt>
      <trkpt lat="44.82836" lon="0.33116">
        <ele>27.753</ele>
        <time>2013-04-19T16:34:10Z</time>
      </trkpt>
      <trkpt lat="44.82839" lon="0.33129">
        <ele>27.459</ele>
        <time>2013-04-19T16:34:15Z</time>
      </trkpt>
      <trkpt lat="44.82842" lon="0.33143">
        <ele>27.748</ele>
        <time>2013-04-19T16:34:22Z</time>
      </trkpt>
      <trkpt lat="44.82846" lon="0.33157">
        <ele>28.088</ele>
        <time>2013-04-19T16:34:27Z</time>
      </trkpt>
      <trkpt lat="44.82851" lon="0.33171">
        <ele>28.37</ele>
        <time>2013-04-19T16:34:32Z</time>
      </trkpt>
      <trkpt lat="44.82853" lon="0.33186">
        <ele>28.667</ele>
        <time>2013-04-19T16:34:37Z</time>
      </trkpt>
      <trkpt lat="44.82856" lon="0.332">
        <ele>28.993</ele>
        <time>2013-04-19T16:34:42Z</time>
      </trkpt>
      <trkpt lat="44.82857" lon="0.33213">
        <ele>29.333</ele>
        <time>2013-04-19T16:34:47Z</time>
      </trkpt>
      <trkpt lat="44.82847" lon="0.33218">
        <ele>29.693</ele>
        <time>2013-04-19T16:34:54Z</time>
      </trkpt>
      <trkpt lat="44.82837" lon="0.33218">
        <ele>30.042</ele>
        <time>2013-04-19T16:34:59Z</time>
      </trkpt>
      <trkpt lat="44.82827" lon="0.33218">
        <ele>30.135</ele>
        <time>2013-04-19T16:35:04Z</time>
      </trkpt>
      <trkpt lat="44.82816" lon="0.33219">
        <ele>29.771</ele>
        <time>2013-04-19T16:35:09Z</time>
      </trkpt>
      <trkpt lat="44.82806" lon="0.3322">
        <ele>29.213</ele>
        <time>2013-04-19T16:35:14Z</time>
      </trkpt>
      <trkpt lat="44.82795" lon="0.33219">
        <ele>28.721</ele>
        <time>2013-04-19T16:35:19Z</time>
      </trkpt>
      <trkpt lat="44.82784" lon="0.3322">
        <ele>28.407</ele>
        <time>2013-04-19T16:35:24Z</time>
      </trkpt>
      <trkpt lat="44.82773" lon="0.33221">
        <ele>28.381</ele>
        <time>2013-04-19T16:35:28Z</time>
      </trkpt>
      <trkpt lat="44.82763" lon="0.33222">
        <ele>28.533</ele>
        <time>2013-04-19T16:35:33Z</time>
      </trkpt>
      <trkpt lat="44.82754" lon="0.33222">
        <ele>28.756</ele>
        <time>2013-04-19T16:35:37Z</time>
      </trkpt>
      <trkpt lat="44.82744" lon="0.33221">
        <ele>29.1</ele>
        <time>2013-04-19T16:35:42Z</time>
      </trkpt>
      <trkpt lat="44.82734" lon="0.33222">
        <ele>29.457</ele>
        <time>2013-04-19T16:35:46Z</time>
      </trkpt>
      <trkpt lat="44.82725" lon="0.33222">
        <ele>29.661</ele>
        <time>2013-04-19T16:35:50Z</time>
      </trkpt>
      <trkpt lat="44.82715" lon="0.33222">
        <ele>29.679</ele>
        <time>2013-04-19T16:35:56Z</time>
      </trkpt>
      <trkpt lat="44.82705" lon="0.33222">
        <ele>29.568</ele>
        <time>2013-04-19T16:35:59Z</time>
      </trkpt>
      <trkpt lat="44.82695" lon="0.33222">
        <ele>29.432</ele>
        <time>2013-04-19T16:36:04Z</time>
      </trkpt>
      <trkpt lat="44.82685" lon="0.33221">
        <ele>29.345</ele>
        <time>2013-04-19T16:36:08Z</time>
      </trkpt>
      <trkpt lat="44.82678" lon="0.33229">
        <ele>29.312</ele>
        <time>2013-04-19T16:36:14Z</time>
      </trkpt>
      <trkpt lat="44.82679" lon="0.33243">
        <ele>29.173</ele>
        <time>2013-04-19T16:36:18Z</time>
      </trkpt>
      <trkpt lat="44.82681" lon="0.33256">
        <ele>28.82</ele>
        <time>2013-04-19T16:36:22Z</time>
      </trkpt>
      <trkpt lat="44.82683" lon="0.33272">
        <ele>28.458</ele>
        <time>2013-04-19T16:36:27Z</time>
      </trkpt>
      <trkpt lat="44.82685" lon="0.33285">
        <ele>28.183</ele>
        <time>2013-04-19T16:36:31Z</time>
      </trkpt>
      <trkpt lat="44.82686" lon="0.33298">
        <ele>27.776</ele>
        <time>2013-04-19T16:36:35Z</time>
      </trkpt>
      <trkpt lat="44.82687" lon="0.33313">
        <ele>27.239</ele>
        <time>2013-04-19T16:36:40Z</time>
      </trkpt>
      <trkpt lat="44.82689" lon="0.33326">
        <ele>26.841</ele>
        <time>2013-04-19T16:36:44Z</time>
      </trkpt>
      <trkpt lat="44.82691" lon="0.33339">
        <ele>26.695</ele>
        <time>2013-04-19T16:36:48Z</time>
      </trkpt>
      <trkpt lat="44.82692" lon="0.33352">
        <ele>26.699</ele>
        <time>2013-04-19T16:36:52Z</time>
      </trkpt>
      <trkpt lat="44.82693" lon="0.33366">
        <ele>26.76</ele>
        <time>2013-04-19T16:36:57Z</time>
      </trkpt>
      <trkpt lat="44.82695" lon="0.33379">
        <ele>26.882</ele>
        <time>2013-04-19T16:37:01Z</time>
      </trkpt>
      <trkpt lat="44.82695" lon="0.33393">
        <ele>27.056</ele>
        <time>2013-04-19T16:37:06Z</time>
      </trkpt>
      <trkpt lat="44.82696" lon="0.33409">
        <ele>27.197</ele>
        <time>2013-04-19T16:37:11Z</time>
      </trkpt>
      <trkpt lat="44.82698" lon="0.33422">
        <ele>27.2</ele>
        <time>2013-04-19T16:37:15Z</time>
      </trkpt>
      <trkpt lat="44.82699" lon="0.33436">
        <ele>27.118</ele>
        <time>2013-04-19T16:37:19Z</time>
      </trkpt>
      <trkpt lat="44.827" lon="0.33451">
        <ele>27.1</ele>
        <time>2013-04-19T16:37:24Z</time>
      </trkpt>
      <trkpt lat="44.82701" lon="0.33465">
        <ele>27.297</ele>
        <time>2013-04-19T16:37:28Z</time>
      </trkpt>
      <trkpt lat="44.82702" lon="0.33478">
        <ele>27.511</ele>
        <time>2013-04-19T16:37:32Z</time>
      </trkpt>
      <trkpt lat="44.82704" lon="0.3349">
        <ele>27.592</ele>
        <time>2013-04-19T16:37:36Z</time>
      </trkpt>
      <trkpt lat="44.82704" lon="0.33506">
        <ele>27.75</ele>
        <time>2013-04-19T16:37:41Z</time>
      </trkpt>
      <trkpt lat="44.82706" lon="0.33519">
        <ele>28.052</ele>
        <time>2013-04-19T16:37:45Z</time>
      </trkpt>
      <trkpt lat="44.82708" lon="0.33534">
        <ele>28.38</ele>
        <time>2013-04-19T16:37:50Z</time>
      </trkpt>
      <trkpt lat="44.82709" lon="0.33548">
        <ele>28.637</ele>
        <time>2013-04-19T16:37:54Z</time>
      </trkpt>
      <trkpt lat="44.82709" lon="0.33561">
        <ele>28.736</ele>
        <time>2013-04-19T16:37:58Z</time>
      </trkpt>
      <trkpt lat="44.8271" lon="0.33574">
        <ele>28.85</ele>
        <time>2013-04-19T16:38:02Z</time>
      </trkpt>
      <trkpt lat="44.82711" lon="0.33589">
        <ele>29.037</ele>
        <time>2013-04-19T16:38:06Z</time>
      </trkpt>
      <trkpt lat="44.82711" lon="0.33602">
        <ele>29.146</ele>
        <time>2013-04-19T16:38:10Z</time>
      </trkpt>
      <trkpt lat="44.82702" lon="0.3361">
        <ele>29.099</ele>
        <time>2013-04-19T16:38:15Z</time>
      </trkpt>
      <trkpt lat="44.82693" lon="0.33613">
        <ele>28.892</ele>
        <time>2013-04-19T16:38:19Z</time>
      </trkpt>
      <trkpt lat="44.82683" lon="0.33615">
        <ele>28.675</ele>
        <time>2013-04-19T16:38:23Z</time>
      </trkpt>
      <trkpt lat="44.82673" lon="0.33618">
        <ele>28.479</ele>
        <time>2013-04-19T16:38:28Z</time>
      </trkpt>
      <trkpt lat="44.82663" lon="0.3362">
        <ele>28.197</ele>
        <time>2013-04-19T16:38:32Z</time>
      </trkpt>
      <trkpt lat="44.82654" lon="0.33624">
        <ele>27.9</ele>
        <time>2013-04-19T16:38:36Z</time>
      </trkpt>
      <trkpt lat="44.82645" lon="0.33628">
        <ele>27.707</ele>
        <time>2013-04-19T16:38:40Z</time>
      </trkpt>
      <trkpt lat="44.82635" lon="0.33633">
        <ele>27.654</ele>
        <time>2013-04-19T16:38:45Z</time>
      </trkpt>
      <trkpt lat="44.82624" lon="0.33639">
        <ele>27.688</ele>
        <time>2013-04-19T16:38:50Z</time>
      </trkpt>
      <trkpt lat="44.82613" lon="0.33644">
        <ele>27.679</ele>
        <time>2013-04-19T16:38:54Z</time>
      </trkpt>
      <trkpt lat="44.82604" lon="0.33648">
        <ele>27.584</ele>
        <time>2013-04-19T16:38:58Z</time>
      </trkpt>
      <trkpt lat="44.82594" lon="0.33654">
        <ele>27.479</ele>
        <time>2013-04-19T16:39:02Z</time>
      </trkpt>
      <trkpt lat="44.82585" lon="0.33658">
        <ele>27.412</ele>
        <time>2013-04-19T16:39:06Z</time>
      </trkpt>
      <trkpt lat="44.82575" lon="0.33663">
        <ele>27.391</ele>
        <time>2013-04-19T16:39:11Z</time>
      </trkpt>
      <trkpt lat="44.82565" lon="0.33667">
        <ele>27.395</ele>
        <time>2013-04-19T16:39:15Z</time>
      </trkpt>
      <trkpt lat="44.82554" lon="0.3367">
        <ele>27.403</ele>
        <time>2013-04-19T16:39:20Z</time>
      </trkpt>
      <trkpt lat="44.82544" lon="0.33671">
        <ele>27.321</ele>
        <time>2013-04-19T16:39:24Z</time>
      </trkpt>
      <trkpt lat="44.82535" lon="0.33673">
        <ele>27.165</ele>
        <time>2013-04-19T16:39:28Z</time>
      </trkpt>
      <trkpt lat="44.82525" lon="0.33675">
        <ele>27.13</ele>
        <time>2013-04-19T16:39:32Z</time>
      </trkpt>
      <trkpt lat="44.82515" lon="0.33677">
        <ele>27.233</ele>
        <time>2013-04-19T16:39:36Z</time>
      </trkpt>
      <trkpt lat="44.82505" lon="0.33678">
        <ele>27.236</ele>
        <time>2013-04-19T16:39:40Z</time>
      </trkpt>
      <trkpt lat="44.82495" lon="0.3368">
        <ele>27.132</ele>
        <time>2013-04-19T16:39:45Z</time>
      </trkpt>
      <trkpt lat="44.82486" lon="0.33679">
        <ele>27.041</ele>
        <time>2013-04-19T16:39:49Z</time>
      </trkpt>
      <trkpt lat="44.82475" lon="0.3368">
        <ele>27.01</ele>
        <time>2013-04-19T16:39:53Z</time>
      </trkpt>
      <trkpt lat="44.82464" lon="0.3368">
        <ele>27.05</ele>
        <time>2013-04-19T16:39:57Z</time>
      </trkpt>
      <trkpt lat="44.82455" lon="0.33679">
        <ele>27.116</ele>
        <time>2013-04-19T16:40:01Z</time>
      </trkpt>
      <trkpt lat="44.82446" lon="0.3368">
        <ele>27.254</ele>
        <time>2013-04-19T16:40:05Z</time>
      </trkpt>
      <trkpt lat="44.82436" lon="0.33679">
        <ele>27.569</ele>
        <time>2013-04-19T16:40:09Z</time>
      </trkpt>
      <trkpt lat="44.82426" lon="0.33677">
        <ele>27.8</ele>
        <time>2013-04-19T16:40:13Z</time>
      </trkpt>
      <trkpt lat="44.82417" lon="0.33677">
        <ele>27.715</ele>
        <time>2013-04-19T16:40:17Z</time>
      </trkpt>
      <trkpt lat="44.82407" lon="0.33675">
        <ele>27.494</ele>
        <time>2013-04-19T16:40:21Z</time>
      </trkpt>
      <trkpt lat="44.82395" lon="0.33675">
        <ele>27.444</ele>
        <time>2013-04-19T16:40:26Z</time>
      </trkpt>
      <trkpt lat="44.82384" lon="0.33677">
        <ele>27.546</ele>
        <time>2013-04-19T16:40:30Z</time>
      </trkpt>
      <trkpt lat="44.82375" lon="0.33679">
        <ele>27.502</ele>
        <time>2013-04-19T16:40:33Z</time>
      </trkpt>
      <trkpt lat="44.82366" lon="0.33682">
        <ele>27.298</ele>
        <time>2013-04-19T16:40:37Z</time>
      </trkpt>
      <trkpt lat="44.82356" lon="0.33687">
        <ele>27.017</ele>
        <time>2013-04-19T16:40:42Z</time>
      </trkpt>
      <trkpt lat="44.82346" lon="0.33692">
        <ele>26.57</ele>
        <time>2013-04-19T16:40:47Z</time>
      </trkpt>
      <trkpt lat="44.82337" lon="0.33698">
        <ele>26.117</ele>
        <time>2013-04-19T16:40:51Z</time>
      </trkpt>
      <trkpt lat="44.82328" lon="0.33704">
        <ele>25.894</ele>
        <time>2013-04-19T16:40:55Z</time>
      </trkpt>
      <trkpt lat="44.82318" lon="0.33708">
        <ele>25.855</ele>
        <time>2013-04-19T16:40:59Z</time>
      </trkpt>
      <trkpt lat="44.82308" lon="0.3371">
        <ele>26.078</ele>
        <time>2013-04-19T16:41:04Z</time>
      </trkpt>
      <trkpt lat="44.82297" lon="0.3371">
        <ele>26.414</ele>
        <time>2013-04-19T16:41:09Z</time>
      </trkpt>
      <trkpt lat="44.82288" lon="0.33709">
        <ele>26.383</ele>
        <time>2013-04-19T16:41:13Z</time>
      </trkpt>
      <trkpt lat="44.82279" lon="0.33705">
        <ele>25.961</ele>
        <time>2013-04-19T16:41:17Z</time>
      </trkpt>
      <trkpt lat="44.8227" lon="0.33701">
        <ele>25.633</ele>
        <time>2013-04-19T16:41:21Z</time>
      </trkpt>
      <trkpt lat="44.8226" lon="0.33695">
        <ele>25.548</ele>
        <time>2013-04-19T16:41:25Z</time>
      </trkpt>
      <trkpt lat="44.82251" lon="0.33689">
        <ele>25.536</ele>
        <time>2013-04-19T16:41:29Z</time>
      </trkpt>
      <trkpt lat="44.82241" lon="0.33682">
        <ele>25.503</ele>
        <time>2013-04-19T16:41:34Z</time>
      </trkpt>
      <trkpt lat="44.82233" lon="0.33676">
        <ele>25.53</ele>
        <time>2013-04-19T16:41:38Z</time>
      </trkpt>
      <trkpt lat="44.82223" lon="0.33669">
        <ele>25.724</ele>
        <time>2013-04-19T16:41:42Z</time>
      </trkpt>
      <trkpt lat="44.82212" lon="0.33663">
        <ele>26.047</ele>
        <time>2013-04-19T16:41:47Z</time>
      </trkpt>
      <trkpt lat="44.82203" lon="0.33657">
        <ele>26.31</ele>
        <time>2013-04-19T16:41:51Z</time>
      </trkpt>
      <trkpt lat="44.82194" lon="0.33651">
        <ele>26.414</ele>
        <time>2013-04-19T16:41:55Z</time>
      </trkpt>
      <trkpt lat="44.82185" lon="0.33645">
        <ele>26.338</ele>
        <time>2013-04-19T16:41:59Z</time>
      </trkpt>
      <trkpt lat="44.82175" lon="0.33638">
        <ele>26.078</ele>
        <time>2013-04-19T16:42:03Z</time>
      </trkpt>
      <trkpt lat="44.82167" lon="0.33634">
        <ele>25.78</ele>
        <time>2013-04-19T16:42:07Z</time>
      </trkpt>
      <trkpt lat="44.82158" lon="0.33628">
        <ele>25.596</ele>
        <time>2013-04-19T16:42:11Z</time>
      </trkpt>
      <trkpt lat="44.82148" lon="0.33622">
        <ele>25.534</ele>
        <time>2013-04-19T16:42:15Z</time>
      </trkpt>
      <trkpt lat="44.8214" lon="0.33616">
        <ele>25.573</ele>
        <time>2013-04-19T16:42:19Z</time>
      </trkpt>
      <trkpt lat="44.8213" lon="0.3361">
        <ele>25.774</ele>
        <time>2013-04-19T16:42:23Z</time>
      </trkpt>
      <trkpt lat="44.82122" lon="0.33605">
        <ele>26.124</ele>
        <time>2013-04-19T16:42:27Z</time>
      </trkpt>
      <trkpt lat="44.82113" lon="0.336">
        <ele>26.431</ele>
        <time>2013-04-19T16:42:31Z</time>
      </trkpt>
      <trkpt lat="44.82104" lon="0.33595">
        <ele>26.6</ele>
        <time>2013-04-19T16:42:35Z</time>
      </trkpt>
      <trkpt lat="44.82094" lon="0.3359">
        <ele>26.713</ele>
        <time>2013-04-19T16:42:39Z</time>
      </trkpt>
      <trkpt lat="44.82086" lon="0.33584">
        <ele>26.67</ele>
        <time>2013-04-19T16:42:43Z</time>
      </trkpt>
      <trkpt lat="44.82077" lon="0.33578">
        <ele>26.363</ele>
        <time>2013-04-19T16:42:47Z</time>
      </trkpt>
      <trkpt lat="44.82068" lon="0.33572">
        <ele>25.986</ele>
        <time>2013-04-19T16:42:51Z</time>
      </trkpt>
      <trkpt lat="44.82057" lon="0.33566">
        <ele>25.79</ele>
        <time>2013-04-19T16:42:56Z</time>
      </trkpt>
      <trkpt lat="44.82049" lon="0.33561">
        <ele>25.831</ele>
        <time>2013-04-19T16:43:00Z</time>
      </trkpt>
      <trkpt lat="44.82038" lon="0.33554">
        <ele>25.975</ele>
        <time>2013-04-19T16:43:05Z</time>
      </trkpt>
      <trkpt lat="44.82029" lon="0.33549">
        <ele>26.078</ele>
        <time>2013-04-19T16:43:09Z</time>
      </trkpt>
      <trkpt lat="44.8202" lon="0.33543">
        <ele>26.347</ele>
        <time>2013-04-19T16:43:13Z</time>
      </trkpt>
      <trkpt lat="44.82011" lon="0.33538">
        <ele>26.937</ele>
        <time>2013-04-19T16:43:17Z</time>
      </trkpt>
      <trkpt lat="44.82001" lon="0.33531">
        <ele>27.518</ele>
        <time>2013-04-19T16:43:21Z</time>
      </trkpt>
      <trkpt lat="44.81991" lon="0.33524">
        <ele>27.929</ele>
        <time>2013-04-19T16:43:26Z</time>
      </trkpt>
      <trkpt lat="44.81983" lon="0.33519">
        <ele>28.321</ele>
        <time>2013-04-19T16:43:30Z</time>
      </trkpt>
      <trkpt lat="44.81973" lon="0.33514">
        <ele>28.631</ele>
        <time>2013-04-19T16:43:34Z</time>
      </trkpt>
      <trkpt lat="44.81965" lon="0.33509">
        <ele>28.629</ele>
        <time>2013-04-19T16:43:38Z</time>
      </trkpt>
      <trkpt lat="44.81956" lon="0.33505">
        <ele>28.289</ele>
        <time>2013-04-19T16:43:42Z</time>
      </trkpt>
      <trkpt lat="44.81946" lon="0.33501">
        <ele>27.875</ele>
        <time>2013-04-19T16:43:46Z</time>
      </trkpt>
      <trkpt lat="44.81935" lon="0.33498">
        <ele>27.641</ele>
        <time>2013-04-19T16:43:51Z</time>
      </trkpt>
      <trkpt lat="44.81925" lon="0.33495">
        <ele>27.584</ele>
        <time>2013-04-19T16:43:55Z</time>
      </trkpt>
      <trkpt lat="44.81914" lon="0.33492">
        <ele>27.607</ele>
        <time>2013-04-19T16:44:00Z</time>
      </trkpt>
      <trkpt lat="44.81905" lon="0.33495">
        <ele>27.648</ele>
        <time>2013-04-19T16:44:04Z</time>
      </trkpt>
      <trkpt lat="44.81898" lon="0.33503">
        <ele>27.717</ele>
        <time>2013-04-19T16:44:08Z</time>
      </trkpt>
      <trkpt lat="44.81891" lon="0.33516">
        <ele>27.938</ele>
        <time>2013-04-19T16:44:12Z</time>
      </trkpt>
      <trkpt lat="44.81886" lon="0.33527">
        <ele>28.395</ele>
        <time>2013-04-19T16:44:16Z</time>
      </trkpt>
      <trkpt lat="44.8188" lon="0.3354">
        <ele>28.915</ele>
        <time>2013-04-19T16:44:20Z</time>
      </trkpt>
      <trkpt lat="44.81876" lon="0.33553">
        <ele>29.242</ele>
        <time>2013-04-19T16:44:25Z</time>
      </trkpt>
      <trkpt lat="44.81871" lon="0.33565">
        <ele>29.34</ele>
        <time>2013-04-19T16:44:29Z</time>
      </trkpt>
      <trkpt lat="44.81866" lon="0.33577">
        <ele>29.321</ele>
        <time>2013-04-19T16:44:33Z</time>
      </trkpt>
      <trkpt lat="44.81861" lon="0.33589">
        <ele>29.413</ele>
        <time>2013-04-19T16:44:37Z</time>
      </trkpt>
      <trkpt lat="44.81856" lon="0.33602">
        <ele>29.709</ele>
        <time>2013-04-19T16:44:41Z</time>
      </trkpt>
      <trkpt lat="44.81851" lon="0.33613">
        <ele>29.607</ele>
        <time>2013-04-19T16:44:45Z</time>
      </trkpt>
      <trkpt lat="44.81845" lon="0.33625">
        <ele>28.984</ele>
        <time>2013-04-19T16:44:49Z</time>
      </trkpt>
      <trkpt lat="44.81839" lon="0.33638">
        <ele>28.668</ele>
        <time>2013-04-19T16:44:54Z</time>
      </trkpt>
      <trkpt lat="44.81835" lon="0.33649">
        <ele>28.881</ele>
        <time>2013-04-19T16:44:58Z</time>
      </trkpt>
      <trkpt lat="44.8183" lon="0.33661">
        <ele>29.131</ele>
        <time>2013-04-19T16:45:02Z</time>
      </trkpt>
      <trkpt lat="44.81825" lon="0.33672">
        <ele>29.259</ele>
        <time>2013-04-19T16:45:06Z</time>
      </trkpt>
      <trkpt lat="44.8182" lon="0.33683">
        <ele>29.238</ele>
        <time>2013-04-19T16:45:10Z</time>
      </trkpt>
      <trkpt lat="44.81814" lon="0.33694">
        <ele>29.148</ele>
        <time>2013-04-19T16:45:14Z</time>
      </trkpt>
      <trkpt lat="44.81809" lon="0.33706">
        <ele>29.136</ele>
        <time>2013-04-19T16:45:18Z</time>
      </trkpt>
      <trkpt lat="44.81804" lon="0.33719">
        <ele>29.218</ele>
        <time>2013-04-19T16:45:22Z</time>
      </trkpt>
      <trkpt lat="44.81799" lon="0.33731">
        <ele>29.295</ele>
        <time>2013-04-19T16:45:27Z</time>
      </trkpt>
      <trkpt lat="44.81794" lon="0.33745">
        <ele>29.413</ele>
        <time>2013-04-19T16:45:31Z</time>
      </trkpt>
      <trkpt lat="44.81789" lon="0.33757">
        <ele>29.636</ele>
        <time>2013-04-19T16:45:35Z</time>
      </trkpt>
      <trkpt lat="44.81784" lon="0.3377">
        <ele>29.854</ele>
        <time>2013-04-19T16:45:40Z</time>
      </trkpt>
      <trkpt lat="44.81779" lon="0.33782">
        <ele>29.87</ele>
        <time>2013-04-19T16:45:44Z</time>
      </trkpt>
      <trkpt lat="44.81773" lon="0.33793">
        <ele>29.859</ele>
        <time>2013-04-19T16:45:48Z</time>
      </trkpt>
      <trkpt lat="44.81768" lon="0.33804">
        <ele>29.868</ele>
        <time>2013-04-19T16:45:52Z</time>
      </trkpt>
      <trkpt lat="44.81763" lon="0.33816">
        <ele>29.604</ele>
        <time>2013-04-19T16:45:56Z</time>
      </trkpt>
      <trkpt lat="44.81757" lon="0.3383">
        <ele>29.149</ele>
        <time>2013-04-19T16:46:00Z</time>
      </trkpt>
      <trkpt lat="44.81752" lon="0.33844">
        <ele>28.883</ele>
        <time>2013-04-19T16:46:04Z</time>
      </trkpt>
      <trkpt lat="44.81747" lon="0.33855">
        <ele>28.822</ele>
        <time>2013-04-19T16:46:08Z</time>
      </trkpt>
      <trkpt lat="44.8174" lon="0.33866">
        <ele>29.011</ele>
        <time>2013-04-19T16:46:12Z</time>
      </trkpt>
      <trkpt lat="44.81731" lon="0.33875">
        <ele>29.44</ele>
        <time>2013-04-19T16:46:16Z</time>
      </trkpt>
      <trkpt lat="44.81723" lon="0.33882">
        <ele>29.957</ele>
        <time>2013-04-19T16:46:20Z</time>
      </trkpt>
      <trkpt lat="44.81713" lon="0.33887">
        <ele>30.424</ele>
        <time>2013-04-19T16:46:24Z</time>
      </trkpt>
      <trkpt lat="44.81705" lon="0.33891">
        <ele>30.665</ele>
        <time>2013-04-19T16:46:28Z</time>
      </trkpt>
      <trkpt lat="44.81711" lon="0.33901">
        <ele>30.587</ele>
        <time>2013-04-19T16:46:33Z</time>
      </trkpt>
      <trkpt lat="44.81719" lon="0.33908">
        <ele>30.39</ele>
        <time>2013-04-19T16:46:37Z</time>
      </trkpt>
      <trkpt lat="44.81728" lon="0.33913">
        <ele>30.264</ele>
        <time>2013-04-19T16:46:42Z</time>
      </trkpt>
      <trkpt lat="44.81731" lon="0.33927">
        <ele>30.197</ele>
        <time>2013-04-19T16:46:47Z</time>
      </trkpt>
      <trkpt lat="44.81731" lon="0.3394">
        <ele>30.13</ele>
        <time>2013-04-19T16:46:51Z</time>
      </trkpt>
      <trkpt lat="44.8173" lon="0.33954">
        <ele>30.017</ele>
        <time>2013-04-19T16:46:55Z</time>
      </trkpt>
      <trkpt lat="44.81729" lon="0.33969">
        <ele>29.855</ele>
        <time>2013-04-19T16:47:00Z</time>
      </trkpt>
      <trkpt lat="44.81727" lon="0.33982">
        <ele>29.712</ele>
        <time>2013-04-19T16:47:04Z</time>
      </trkpt>
      <trkpt lat="44.81727" lon="0.33995">
        <ele>29.991</ele>
        <time>2013-04-19T16:47:08Z</time>
      </trkpt>
      <trkpt lat="44.81726" lon="0.34008">
        <ele>30.505</ele>
        <time>2013-04-19T16:47:12Z</time>
      </trkpt>
      <trkpt lat="44.81726" lon="0.34021">
        <ele>30.482</ele>
        <time>2013-04-19T16:47:16Z</time>
      </trkpt>
      <trkpt lat="44.81725" lon="0.34034">
        <ele>29.96</ele>
        <time>2013-04-19T16:47:20Z</time>
      </trkpt>
      <trkpt lat="44.81726" lon="0.34048">
        <ele>29.566</ele>
        <time>2013-04-19T16:47:24Z</time>
      </trkpt>
      <trkpt lat="44.81726" lon="0.34062">
        <ele>29.41</ele>
        <time>2013-04-19T16:47:28Z</time>
      </trkpt>
      <trkpt lat="44.81725" lon="0.34075">
        <ele>29.411</ele>
        <time>2013-04-19T16:47:32Z</time>
      </trkpt>
      <trkpt lat="44.81722" lon="0.34087">
        <ele>29.471</ele>
        <time>2013-04-19T16:47:36Z</time>
      </trkpt>
      <trkpt lat="44.81719" lon="0.341">
        <ele>29.524</ele>
        <time>2013-04-19T16:47:40Z</time>
      </trkpt>
      <trkpt lat="44.81716" lon="0.34114">
        <ele>29.619</ele>
        <time>2013-04-19T16:47:44Z</time>
      </trkpt>
      <trkpt lat="44.81714" lon="0.34128">
        <ele>29.812</ele>
        <time>2013-04-19T16:47:48Z</time>
      </trkpt>
      <trkpt lat="44.81711" lon="0.34141">
        <ele>30.003</ele>
        <time>2013-04-19T16:47:52Z</time>
      </trkpt>
      <trkpt lat="44.8171" lon="0.34154">
        <ele>29.826</ele>
        <time>2013-04-19T16:47:56Z</time>
      </trkpt>
      <trkpt lat="44.81711" lon="0.34168">
        <ele>29.149</ele>
        <time>2013-04-19T16:48:00Z</time>
      </trkpt>
      <trkpt lat="44.81711" lon="0.34183">
        <ele>28.424</ele>
        <time>2013-04-19T16:48:05Z</time>
      </trkpt>
      <trkpt lat="44.8171" lon="0.34197">
        <ele>28.265</ele>
        <time>2013-04-19T16:48:09Z</time>
      </trkpt>
      <trkpt lat="44.81711" lon="0.34215">
        <ele>28.581</ele>
        <time>2013-04-19T16:48:14Z</time>
      </trkpt>
      <trkpt lat="44.81713" lon="0.34228">
        <ele>28.818</ele>
        <time>2013-04-19T16:48:19Z</time>
      </trkpt>
      <trkpt lat="44.81713" lon="0.34243">
        <ele>28.779</ele>
        <time>2013-04-19T16:48:23Z</time>
      </trkpt>
      <trkpt lat="44.81713" lon="0.34257">
        <ele>28.81</ele>
        <time>2013-04-19T16:48:27Z</time>
      </trkpt>
      <trkpt lat="44.81712" lon="0.34269">
        <ele>29.082</ele>
        <time>2013-04-19T16:48:31Z</time>
      </trkpt>
      <trkpt lat="44.8171" lon="0.34282">
        <ele>29.278</ele>
        <time>2013-04-19T16:48:35Z</time>
      </trkpt>
      <trkpt lat="44.81708" lon="0.34296">
        <ele>29.032</ele>
        <time>2013-04-19T16:48:39Z</time>
      </trkpt>
      <trkpt lat="44.81707" lon="0.34309">
        <ele>28.518</ele>
        <time>2013-04-19T16:48:43Z</time>
      </trkpt>
      <trkpt lat="44.81706" lon="0.34325">
        <ele>28.222</ele>
        <time>2013-04-19T16:48:48Z</time>
      </trkpt>
      <trkpt lat="44.81705" lon="0.3434">
        <ele>28.38</ele>
        <time>2013-04-19T16:48:52Z</time>
      </trkpt>
      <trkpt lat="44.81703" lon="0.34353">
        <ele>28.78</ele>
        <time>2013-04-19T16:48:56Z</time>
      </trkpt>
      <trkpt lat="44.81703" lon="0.34368">
        <ele>29.087</ele>
        <time>2013-04-19T16:49:01Z</time>
      </trkpt>
      <trkpt lat="44.81701" lon="0.34384">
        <ele>29.203</ele>
        <time>2013-04-19T16:49:06Z</time>
      </trkpt>
      <trkpt lat="44.81698" lon="0.34398">
        <ele>29.342</ele>
        <time>2013-04-19T16:49:10Z</time>
      </trkpt>
      <trkpt lat="44.81696" lon="0.34413">
        <ele>29.667</ele>
        <time>2013-04-19T16:49:15Z</time>
      </trkpt>
      <trkpt lat="44.81693" lon="0.34426">
        <ele>30.01</ele>
        <time>2013-04-19T16:49:19Z</time>
      </trkpt>
      <trkpt lat="44.8169" lon="0.3444">
        <ele>30.276</ele>
        <time>2013-04-19T16:49:24Z</time>
      </trkpt>
      <trkpt lat="44.81688" lon="0.34453">
        <ele>30.623</ele>
        <time>2013-04-19T16:49:28Z</time>
      </trkpt>
      <trkpt lat="44.81687" lon="0.34467">
        <ele>31.189</ele>
        <time>2013-04-19T16:49:32Z</time>
      </trkpt>
      <trkpt lat="44.81685" lon="0.34482">
        <ele>31.885</ele>
        <time>2013-04-19T16:49:37Z</time>
      </trkpt>
      <trkpt lat="44.81685" lon="0.34497">
        <ele>32.411</ele>
        <time>2013-04-19T16:49:42Z</time>
      </trkpt>
      <trkpt lat="44.81683" lon="0.34513">
        <ele>32.569</ele>
        <time>2013-04-19T16:49:47Z</time>
      </trkpt>
      <trkpt lat="44.81681" lon="0.34527">
        <ele>32.425</ele>
        <time>2013-04-19T16:49:52Z</time>
      </trkpt>
      <trkpt lat="44.81677" lon="0.34539">
        <ele>32.16</ele>
        <time>2013-04-19T16:49:57Z</time>
      </trkpt>
      <trkpt lat="44.81673" lon="0.34551">
        <ele>31.963</ele>
        <time>2013-04-19T16:50:02Z</time>
      </trkpt>
      <trkpt lat="44.81668" lon="0.34564">
        <ele>31.89</ele>
        <time>2013-04-19T16:50:07Z</time>
      </trkpt>
      <trkpt lat="44.81663" lon="0.34576">
        <ele>31.783</ele>
        <time>2013-04-19T16:50:13Z</time>
      </trkpt>
      <trkpt lat="44.81659" lon="0.34588">
        <ele>31.631</ele>
        <time>2013-04-19T16:50:18Z</time>
      </trkpt>
      <trkpt lat="44.81654" lon="0.34601">
        <ele>31.64</ele>
        <time>2013-04-19T16:50:23Z</time>
      </trkpt>
      <trkpt lat="44.81651" lon="0.34613">
        <ele>31.779</ele>
        <time>2013-04-19T16:50:27Z</time>
      </trkpt>
      <trkpt lat="44.81647" lon="0.34624">
        <ele>31.895</ele>
        <time>2013-04-19T16:50:31Z</time>
      </trkpt>
      <trkpt lat="44.81643" lon="0.34636">
        <ele>31.977</ele>
        <time>2013-04-19T16:50:35Z</time>
      </trkpt>
      <trkpt lat="44.81638" lon="0.34649">
        <ele>31.974</ele>
        <time>2013-04-19T16:50:40Z</time>
      </trkpt>
      <trkpt lat="44.81633" lon="0.34661">
        <ele>31.903</ele>
        <time>2013-04-19T16:50:45Z</time>
      </trkpt>
      <trkpt lat="44.81628" lon="0.34672">
        <ele>31.848</ele>
        <time>2013-04-19T16:50:49Z</time>
      </trkpt>
      <trkpt lat="44.81623" lon="0.34685">
        <ele>31.818</ele>
        <time>2013-04-19T16:50:54Z</time>
      </trkpt>
      <trkpt lat="44.81618" lon="0.34696">
        <ele>31.786</ele>
        <time>2013-04-19T16:50:59Z</time>
      </trkpt>
      <trkpt lat="44.81612" lon="0.34707">
        <ele>31.748</ele>
        <time>2013-04-19T16:51:04Z</time>
      </trkpt>
      <trkpt lat="44.81607" lon="0.34721">
        <ele>31.716</ele>
        <time>2013-04-19T16:51:09Z</time>
      </trkpt>
      <trkpt lat="44.81602" lon="0.34735">
        <ele>31.765</ele>
        <time>2013-04-19T16:51:14Z</time>
      </trkpt>
      <trkpt lat="44.81598" lon="0.34749">
        <ele>31.928</ele>
        <time>2013-04-19T16:51:19Z</time>
      </trkpt>
      <trkpt lat="44.81593" lon="0.34761">
        <ele>32.1</ele>
        <time>2013-04-19T16:51:23Z</time>
      </trkpt>
      <trkpt lat="44.81588" lon="0.34774">
        <ele>32.182</ele>
        <time>2013-04-19T16:51:28Z</time>
      </trkpt>
      <trkpt lat="44.81585" lon="0.34789">
        <ele>32.195</ele>
        <time>2013-04-19T16:51:33Z</time>
      </trkpt>
      <trkpt lat="44.8158" lon="0.348">
        <ele>32.162</ele>
        <time>2013-04-19T16:51:38Z</time>
      </trkpt>
      <trkpt lat="44.81576" lon="0.34813">
        <ele>32.098</ele>
        <time>2013-04-19T16:51:42Z</time>
      </trkpt>
      <trkpt lat="44.81572" lon="0.34825">
        <ele>32.04</ele>
        <time>2013-04-19T16:51:46Z</time>
      </trkpt>
      <trkpt lat="44.81568" lon="0.34839">
        <ele>32.015</ele>
        <time>2013-04-19T16:51:50Z</time>
      </trkpt>
      <trkpt lat="44.81565" lon="0.34853">
        <ele>32.192</ele>
        <time>2013-04-19T16:51:55Z</time>
      </trkpt>
      <trkpt lat="44.8156" lon="0.34867">
        <ele>32.669</ele>
        <time>2013-04-19T16:52:00Z</time>
      </trkpt>
      <trkpt lat="44.81556" lon="0.3488">
        <ele>33.173</ele>
        <time>2013-04-19T16:52:04Z</time>
      </trkpt>
      <trkpt lat="44.81552" lon="0.34892">
        <ele>33.436</ele>
        <time>2013-04-19T16:52:08Z</time>
      </trkpt>
      <trkpt lat="44.81548" lon="0.34905">
        <ele>33.498</ele>
        <time>2013-04-19T16:52:12Z</time>
      </trkpt>
      <trkpt lat="44.81544" lon="0.34917">
        <ele>33.462</ele>
        <time>2013-04-19T16:52:16Z</time>
      </trkpt>
      <trkpt lat="44.81539" lon="0.3493">
        <ele>33.402</ele>
        <time>2013-04-19T16:52:20Z</time>
      </trkpt>
      <trkpt lat="44.81534" lon="0.34941">
        <ele>33.358</ele>
        <time>2013-04-19T16:52:24Z</time>
      </trkpt>
      <trkpt lat="44.81528" lon="0.34952">
        <ele>33.398</ele>
        <time>2013-04-19T16:52:28Z</time>
      </trkpt>
      <trkpt lat="44.81521" lon="0.34961">
        <ele>33.405</ele>
        <time>2013-04-19T16:52:32Z</time>
      </trkpt>
      <trkpt lat="44.81512" lon="0.34969">
        <ele>33.338</ele>
        <time>2013-04-19T16:52:37Z</time>
      </trkpt>
      <trkpt lat="44.81504" lon="0.34976">
        <ele>33.402</ele>
        <time>2013-04-19T16:52:41Z</time>
      </trkpt>
      <trkpt lat="44.81496" lon="0.34986">
        <ele>33.606</ele>
        <time>2013-04-19T16:52:46Z</time>
      </trkpt>
      <trkpt lat="44.81488" lon="0.34994">
        <ele>33.605</ele>
        <time>2013-04-19T16:52:50Z</time>
      </trkpt>
      <trkpt lat="44.8148" lon="0.35005">
        <ele>33.158</ele>
        <time>2013-04-19T16:52:55Z</time>
      </trkpt>
      <trkpt lat="44.81473" lon="0.35013">
        <ele>32.415</ele>
        <time>2013-04-19T16:52:59Z</time>
      </trkpt>
      <trkpt lat="44.81463" lon="0.35022">
        <ele>31.804</ele>
        <time>2013-04-19T16:53:03Z</time>
      </trkpt>
      <trkpt lat="44.81456" lon="0.35029">
        <ele>31.532</ele>
        <time>2013-04-19T16:53:06Z</time>
      </trkpt>
      <trkpt lat="44.81448" lon="0.35036">
        <ele>31.501</ele>
        <time>2013-04-19T16:53:10Z</time>
      </trkpt>
      <trkpt lat="44.81441" lon="0.35044">
        <ele>31.569</ele>
        <time>2013-04-19T16:53:14Z</time>
      </trkpt>
      <trkpt lat="44.81433" lon="0.35053">
        <ele>31.654</ele>
        <time>2013-04-19T16:53:18Z</time>
      </trkpt>
      <trkpt lat="44.81425" lon="0.35062">
        <ele>31.934</ele>
        <time>2013-04-19T16:53:22Z</time>
      </trkpt>
      <trkpt lat="44.81416" lon="0.35068">
        <ele>32.531</ele>
        <time>2013-04-19T16:53:25Z</time>
      </trkpt>
      <trkpt lat="44.81408" lon="0.35074">
        <ele>33.174</ele>
        <time>2013-04-19T16:53:28Z</time>
      </trkpt>
      <trkpt lat="44.814" lon="0.3508">
        <ele>33.586</ele>
        <time>2013-04-19T16:53:31Z</time>
      </trkpt>
      <trkpt lat="44.81389" lon="0.35088">
        <ele>33.766</ele>
        <time>2013-04-19T16:53:35Z</time>
      </trkpt>
      <trkpt lat="44.81381" lon="0.35094">
        <ele>33.783</ele>
        <time>2013-04-19T16:53:38Z</time>
      </trkpt>
      <trkpt lat="44.81371" lon="0.35099">
        <ele>33.745</ele>
        <time>2013-04-19T16:53:42Z</time>
      </trkpt>
      <trkpt lat="44.81361" lon="0.35104">
        <ele>33.712</ele>
        <time>2013-04-19T16:53:46Z</time>
      </trkpt>
      <trkpt lat="44.81352" lon="0.35109">
        <ele>33.845</ele>
        <time>2013-04-19T16:53:50Z</time>
      </trkpt>
      <trkpt lat="44.81342" lon="0.35115">
        <ele>34.353</ele>
        <time>2013-04-19T16:53:54Z</time>
      </trkpt>
      <trkpt lat="44.81334" lon="0.35121">
        <ele>35.244</ele>
        <time>2013-04-19T16:53:57Z</time>
      </trkpt>
      <trkpt lat="44.81325" lon="0.35129">
        <ele>36.036</ele>
        <time>2013-04-19T16:54:01Z</time>
      </trkpt>
      <trkpt lat="44.81316" lon="0.35138">
        <ele>36.236</ele>
        <time>2013-04-19T16:54:05Z</time>
      </trkpt>
      <trkpt lat="44.81306" lon="0.35147">
        <ele>36.16</ele>
        <time>2013-04-19T16:54:09Z</time>
      </trkpt>
      <trkpt lat="44.81297" lon="0.35152">
        <ele>36.355</ele>
        <time>2013-04-19T16:54:12Z</time>
      </trkpt>
      <trkpt lat="44.81288" lon="0.35155">
        <ele>36.681</ele>
        <time>2013-04-19T16:54:15Z</time>
      </trkpt>
      <trkpt lat="44.81279" lon="0.35158">
        <ele>36.853</ele>
        <time>2013-04-19T16:54:18Z</time>
      </trkpt>
      <trkpt lat="44.8127" lon="0.3516">
        <ele>36.872</ele>
        <time>2013-04-19T16:54:21Z</time>
      </trkpt>
      <trkpt lat="44.81258" lon="0.35162">
        <ele>36.828</ele>
        <time>2013-04-19T16:54:24Z</time>
      </trkpt>
      <trkpt lat="44.81248" lon="0.3516">
        <ele>36.836</ele>
        <time>2013-04-19T16:54:27Z</time>
      </trkpt>
      <trkpt lat="44.81237" lon="0.35157">
        <ele>36.933</ele>
        <time>2013-04-19T16:54:30Z</time>
      </trkpt>
      <trkpt lat="44.81226" lon="0.35151">
        <ele>37.041</ele>
        <time>2013-04-19T16:54:33Z</time>
      </trkpt>
      <trkpt lat="44.81217" lon="0.35144">
        <ele>37.095</ele>
        <time>2013-04-19T16:54:36Z</time>
      </trkpt>
      <trkpt lat="44.81208" lon="0.35135">
        <ele>37.046</ele>
        <time>2013-04-19T16:54:40Z</time>
      </trkpt>
      <trkpt lat="44.81208" lon="0.35135">
        <ele>36.933</ele>
        <time>2013-04-19T16:54:43Z</time>
      </trkpt>
      <trkpt lat="44.81208" lon="0.35135">
        <ele>36.875</ele>
        <time>2013-04-19T16:54:45Z</time>
      </trkpt>
      <trkpt lat="44.81193" lon="0.35128">
        <ele>36.851</ele>
        <time>2013-04-19T16:55:05Z</time>
      </trkpt>
      <trkpt lat="44.81184" lon="0.35122">
        <ele>36.774</ele>
        <time>2013-04-19T16:55:10Z</time>
      </trkpt>
      <trkpt lat="44.81175" lon="0.35115">
        <ele>36.477</ele>
        <time>2013-04-19T16:55:15Z</time>
      </trkpt>
      <trkpt lat="44.81167" lon="0.35109">
        <ele>35.878</ele>
        <time>2013-04-19T16:55:19Z</time>
      </trkpt>
      <trkpt lat="44.81158" lon="0.35102">
        <ele>35.529</ele>
        <time>2013-04-19T16:55:23Z</time>
      </trkpt>
      <trkpt lat="44.81148" lon="0.35096">
        <ele>35.636</ele>
        <time>2013-04-19T16:55:28Z</time>
      </trkpt>
      <trkpt lat="44.81138" lon="0.35088">
        <ele>35.523</ele>
        <time>2013-04-19T16:55:34Z</time>
      </trkpt>
      <trkpt lat="44.8113" lon="0.35082">
        <ele>35</ele>
        <time>2013-04-19T16:55:38Z</time>
      </trkpt>
      <trkpt lat="44.8112" lon="0.35077">
        <ele>34.546</ele>
        <time>2013-04-19T16:55:42Z</time>
      </trkpt>
      <trkpt lat="44.8112" lon="0.35077">
        <ele>34.352</ele>
        <time>2013-04-19T16:55:43Z</time>
      </trkpt>
      <trkpt lat="44.8111" lon="0.35072">
        <ele>34.348</ele>
        <time>2013-04-19T16:55:47Z</time>
      </trkpt>
      <trkpt lat="44.81102" lon="0.35066">
        <ele>34.419</ele>
        <time>2013-04-19T16:55:51Z</time>
      </trkpt>
      <trkpt lat="44.81102" lon="0.35066">
        <ele>34.486</ele>
        <time>2013-04-19T16:55:52Z</time>
      </trkpt>
      <trkpt lat="44.81093" lon="0.3506">
        <ele>34.548</ele>
        <time>2013-04-19T16:55:55Z</time>
      </trkpt>
      <trkpt lat="44.81083" lon="0.35052">
        <ele>34.789</ele>
        <time>2013-04-19T16:56:00Z</time>
      </trkpt>
      <trkpt lat="44.81074" lon="0.35044">
        <ele>35.117</ele>
        <time>2013-04-19T16:56:05Z</time>
      </trkpt>
      <trkpt lat="44.81065" lon="0.35036">
        <ele>35.428</ele>
        <time>2013-04-19T16:56:10Z</time>
      </trkpt>
      <trkpt lat="44.81057" lon="0.35028">
        <ele>35.805</ele>
        <time>2013-04-19T16:56:14Z</time>
      </trkpt>
      <trkpt lat="44.81049" lon="0.35021">
        <ele>36.077</ele>
        <time>2013-04-19T16:56:18Z</time>
      </trkpt>
      <trkpt lat="44.81041" lon="0.35012">
        <ele>36.073</ele>
        <time>2013-04-19T16:56:22Z</time>
      </trkpt>
      <trkpt lat="44.81033" lon="0.35005">
        <ele>35.992</ele>
        <time>2013-04-19T16:56:27Z</time>
      </trkpt>
      <trkpt lat="44.81026" lon="0.34997">
        <ele>35.933</ele>
        <time>2013-04-19T16:56:31Z</time>
      </trkpt>
      <trkpt lat="44.81016" lon="0.34989">
        <ele>36.138</ele>
        <time>2013-04-19T16:56:36Z</time>
      </trkpt>
      <trkpt lat="44.81007" lon="0.34982">
        <ele>36.73</ele>
        <time>2013-04-19T16:56:41Z</time>
      </trkpt>
      <trkpt lat="44.80999" lon="0.34976">
        <ele>37.344</ele>
        <time>2013-04-19T16:56:45Z</time>
      </trkpt>
      <trkpt lat="44.80989" lon="0.3497">
        <ele>37.637</ele>
        <time>2013-04-19T16:56:50Z</time>
      </trkpt>
      <trkpt lat="44.80981" lon="0.34961">
        <ele>37.685</ele>
        <time>2013-04-19T16:56:55Z</time>
      </trkpt>
      <trkpt lat="44.80973" lon="0.34953">
        <ele>37.808</ele>
        <time>2013-04-19T16:56:59Z</time>
      </trkpt>
      <trkpt lat="44.80965" lon="0.34945">
        <ele>38.198</ele>
        <time>2013-04-19T16:57:04Z</time>
      </trkpt>
      <trkpt lat="44.80957" lon="0.34936">
        <ele>38.7</ele>
        <time>2013-04-19T16:57:09Z</time>
      </trkpt>
      <trkpt lat="44.8095" lon="0.34928">
        <ele>39.114</ele>
        <time>2013-04-19T16:57:14Z</time>
      </trkpt>
      <trkpt lat="44.80944" lon="0.34916">
        <ele>39.439</ele>
        <time>2013-04-19T16:57:20Z</time>
      </trkpt>
      <trkpt lat="44.80937" lon="0.34908">
        <ele>39.98</ele>
        <time>2013-04-19T16:57:25Z</time>
      </trkpt>
      <trkpt lat="44.8093" lon="0.34898">
        <ele>41.142</ele>
        <time>2013-04-19T16:57:30Z</time>
      </trkpt>
      <trkpt lat="44.80923" lon="0.34887">
        <ele>42.845</ele>
        <time>2013-04-19T16:57:36Z</time>
      </trkpt>
      <trkpt lat="44.80915" lon="0.34877">
        <ele>44.505</ele>
        <time>2013-04-19T16:57:42Z</time>
      </trkpt>
      <trkpt lat="44.80908" lon="0.34868">
        <ele>45.627</ele>
        <time>2013-04-19T16:57:48Z</time>
      </trkpt>
      <trkpt lat="44.80901" lon="0.34859">
        <ele>46.353</ele>
        <time>2013-04-19T16:57:54Z</time>
      </trkpt>
      <trkpt lat="44.80894" lon="0.34849">
        <ele>47.134</ele>
        <time>2013-04-19T16:57:59Z</time>
      </trkpt>
      <trkpt lat="44.80886" lon="0.3484">
        <ele>47.96</ele>
        <time>2013-04-19T16:58:05Z</time>
      </trkpt>
      <trkpt lat="44.80878" lon="0.34831">
        <ele>48.821</ele>
        <time>2013-04-19T16:58:11Z</time>
      </trkpt>
      <trkpt lat="44.80871" lon="0.34824">
        <ele>49.848</ele>
        <time>2013-04-19T16:58:17Z</time>
      </trkpt>
      <trkpt lat="44.80861" lon="0.34821">
        <ele>51.112</ele>
        <time>2013-04-19T16:58:23Z</time>
      </trkpt>
      <trkpt lat="44.80851" lon="0.34814">
        <ele>52.743</ele>
        <time>2013-04-19T16:58:29Z</time>
      </trkpt>
      <trkpt lat="44.80843" lon="0.34805">
        <ele>54.448</ele>
        <time>2013-04-19T16:58:36Z</time>
      </trkpt>
      <trkpt lat="44.80836" lon="0.34796">
        <ele>55.707</ele>
        <time>2013-04-19T16:58:43Z</time>
      </trkpt>
      <trkpt lat="44.80828" lon="0.34788">
        <ele>56.717</ele>
        <time>2013-04-19T16:58:50Z</time>
      </trkpt>
      <trkpt lat="44.8082" lon="0.3478">
        <ele>58.391</ele>
        <time>2013-04-19T16:58:57Z</time>
      </trkpt>
      <trkpt lat="44.80812" lon="0.34774">
        <ele>60.954</ele>
        <time>2013-04-19T16:59:04Z</time>
      </trkpt>
      <trkpt lat="44.80803" lon="0.34773">
        <ele>63.332</ele>
        <time>2013-04-19T16:59:10Z</time>
      </trkpt>
      <trkpt lat="44.80792" lon="0.34774">
        <ele>65.377</ele>
        <time>2013-04-19T16:59:18Z</time>
      </trkpt>
      <trkpt lat="44.80783" lon="0.34778">
        <ele>68.17</ele>
        <time>2013-04-19T16:59:26Z</time>
      </trkpt>
      <trkpt lat="44.80775" lon="0.34785">
        <ele>71.362</ele>
        <time>2013-04-19T16:59:33Z</time>
      </trkpt>
      <trkpt lat="44.80768" lon="0.34794">
        <ele>73.788</ele>
        <time>2013-04-19T16:59:40Z</time>
      </trkpt>
      <trkpt lat="44.8076" lon="0.34799">
        <ele>75.346</ele>
        <time>2013-04-19T16:59:48Z</time>
      </trkpt>
      <trkpt lat="44.80751" lon="0.34806">
        <ele>76.473</ele>
        <time>2013-04-19T16:59:58Z</time>
      </trkpt>
      <trkpt lat="44.80745" lon="0.34816">
        <ele>77.284</ele>
        <time>2013-04-19T17:00:03Z</time>
      </trkpt>
      <trkpt lat="44.80736" lon="0.34816">
        <ele>78.329</ele>
        <time>2013-04-19T17:00:10Z</time>
      </trkpt>
      <trkpt lat="44.80727" lon="0.34811">
        <ele>80.16</ele>
        <time>2013-04-19T17:00:16Z</time>
      </trkpt>
      <trkpt lat="44.80721" lon="0.34802">
        <ele>82.104</ele>
        <time>2013-04-19T17:00:22Z</time>
      </trkpt>
      <trkpt lat="44.80715" lon="0.34789">
        <ele>83.361</ele>
        <time>2013-04-19T17:00:29Z</time>
      </trkpt>
      <trkpt lat="44.80711" lon="0.34778">
        <ele>84.055</ele>
        <time>2013-04-19T17:00:35Z</time>
      </trkpt>
      <trkpt lat="44.80704" lon="0.34767">
        <ele>84.373</ele>
        <time>2013-04-19T17:00:42Z</time>
      </trkpt>
      <trkpt lat="44.80699" lon="0.34755">
        <ele>84.558</ele>
        <time>2013-04-19T17:00:48Z</time>
      </trkpt>
      <trkpt lat="44.80692" lon="0.34744">
        <ele>85.076</ele>
        <time>2013-04-19T17:00:55Z</time>
      </trkpt>
      <trkpt lat="44.80685" lon="0.34733">
        <ele>86.178</ele>
        <time>2013-04-19T17:01:01Z</time>
      </trkpt>
      <trkpt lat="44.8068" lon="0.34722">
        <ele>87.557</ele>
        <time>2013-04-19T17:01:07Z</time>
      </trkpt>
      <trkpt lat="44.80674" lon="0.34711">
        <ele>88.746</ele>
        <time>2013-04-19T17:01:14Z</time>
      </trkpt>
      <trkpt lat="44.80668" lon="0.34699">
        <ele>90.206</ele>
        <time>2013-04-19T17:01:24Z</time>
      </trkpt>
      <trkpt lat="44.80663" lon="0.34687">
        <ele>92.411</ele>
        <time>2013-04-19T17:01:32Z</time>
      </trkpt>
      <trkpt lat="44.80662" lon="0.34674">
        <ele>94.885</ele>
        <time>2013-04-19T17:01:40Z</time>
      </trkpt>
      <trkpt lat="44.80662" lon="0.34674">
        <ele>96.952</ele>
        <time>2013-04-19T17:01:46Z</time>
      </trkpt>
      <trkpt lat="44.80662" lon="0.34674">
        <ele>98.199</ele>
        <time>2013-04-19T17:02:16Z</time>
      </trkpt>
      <trkpt lat="44.80673" lon="0.34653">
        <ele>98.761</ele>
        <time>2013-04-19T17:02:22Z</time>
      </trkpt>
      <trkpt lat="44.80668" lon="0.34642">
        <ele>99.671</ele>
        <time>2013-04-19T17:02:28Z</time>
      </trkpt>
      <trkpt lat="44.80658" lon="0.34645">
        <ele>101.371</ele>
        <time>2013-04-19T17:02:40Z</time>
      </trkpt>
      <trkpt lat="44.80649" lon="0.3465">
        <ele>103.086</ele>
        <time>2013-04-19T17:02:48Z</time>
      </trkpt>
      <trkpt lat="44.80643" lon="0.34641">
        <ele>104.032</ele>
        <time>2013-04-19T17:02:52Z</time>
      </trkpt>
      <trkpt lat="44.80635" lon="0.34631">
        <ele>104.927</ele>
        <time>2013-04-19T17:02:57Z</time>
      </trkpt>
      <trkpt lat="44.80627" lon="0.34622">
        <ele>106.639</ele>
        <time>2013-04-19T17:03:02Z</time>
      </trkpt>
      <trkpt lat="44.80621" lon="0.34611">
        <ele>108.762</ele>
        <time>2013-04-19T17:03:07Z</time>
      </trkpt>
      <trkpt lat="44.80615" lon="0.34599">
        <ele>110.477</ele>
        <time>2013-04-19T17:03:11Z</time>
      </trkpt>
      <trkpt lat="44.8061" lon="0.34588">
        <ele>111.161</ele>
        <time>2013-04-19T17:03:15Z</time>
      </trkpt>
      <trkpt lat="44.80604" lon="0.34578">
        <ele>110.581</ele>
        <time>2013-04-19T17:03:19Z</time>
      </trkpt>
      <trkpt lat="44.80598" lon="0.34566">
        <ele>109.526</ele>
        <time>2013-04-19T17:03:24Z</time>
      </trkpt>
      <trkpt lat="44.80591" lon="0.34554">
        <ele>108.897</ele>
        <time>2013-04-19T17:03:29Z</time>
      </trkpt>
      <trkpt lat="44.80582" lon="0.34546">
        <ele>108.669</ele>
        <time>2013-04-19T17:03:35Z</time>
      </trkpt>
      <trkpt lat="44.80572" lon="0.34544">
        <ele>108.094</ele>
        <time>2013-04-19T17:03:39Z</time>
      </trkpt>
      <trkpt lat="44.80562" lon="0.34546">
        <ele>106.961</ele>
        <time>2013-04-19T17:03:43Z</time>
      </trkpt>
      <trkpt lat="44.80552" lon="0.34548">
        <ele>105.679</ele>
        <time>2013-04-19T17:03:48Z</time>
      </trkpt>
      <trkpt lat="44.80541" lon="0.34546">
        <ele>104.531</ele>
        <time>2013-04-19T17:03:52Z</time>
      </trkpt>
      <trkpt lat="44.80532" lon="0.34541">
        <ele>103.761</ele>
        <time>2013-04-19T17:03:56Z</time>
      </trkpt>
      <trkpt lat="44.80524" lon="0.34534">
        <ele>103.504</ele>
        <time>2013-04-19T17:04:00Z</time>
      </trkpt>
      <trkpt lat="44.80515" lon="0.34527">
        <ele>103.536</ele>
        <time>2013-04-19T17:04:05Z</time>
      </trkpt>
      <trkpt lat="44.80506" lon="0.34521">
        <ele>103.642</ele>
        <time>2013-04-19T17:04:09Z</time>
      </trkpt>
      <trkpt lat="44.80497" lon="0.34515">
        <ele>103.718</ele>
        <time>2013-04-19T17:04:13Z</time>
      </trkpt>
      <trkpt lat="44.80489" lon="0.34507">
        <ele>103.628</ele>
        <time>2013-04-19T17:04:17Z</time>
      </trkpt>
      <trkpt lat="44.8048" lon="0.345">
        <ele>103.299</ele>
        <time>2013-04-19T17:04:22Z</time>
      </trkpt>
      <trkpt lat="44.80472" lon="0.34493">
        <ele>102.894</ele>
        <time>2013-04-19T17:04:26Z</time>
      </trkpt>
      <trkpt lat="44.80462" lon="0.34486">
        <ele>102.612</ele>
        <time>2013-04-19T17:04:31Z</time>
      </trkpt>
      <trkpt lat="44.80454" lon="0.3448">
        <ele>102.429</ele>
        <time>2013-04-19T17:04:35Z</time>
      </trkpt>
      <trkpt lat="44.80445" lon="0.34475">
        <ele>102.234</ele>
        <time>2013-04-19T17:04:39Z</time>
      </trkpt>
      <trkpt lat="44.80436" lon="0.34469">
        <ele>101.972</ele>
        <time>2013-04-19T17:04:43Z</time>
      </trkpt>
      <trkpt lat="44.80427" lon="0.34465">
        <ele>101.694</ele>
        <time>2013-04-19T17:04:47Z</time>
      </trkpt>
      <trkpt lat="44.80418" lon="0.34461">
        <ele>101.56</ele>
        <time>2013-04-19T17:04:51Z</time>
      </trkpt>
      <trkpt lat="44.80409" lon="0.34458">
        <ele>101.674</ele>
        <time>2013-04-19T17:04:55Z</time>
      </trkpt>
      <trkpt lat="44.80399" lon="0.34456">
        <ele>101.961</ele>
        <time>2013-04-19T17:04:59Z</time>
      </trkpt>
      <trkpt lat="44.80389" lon="0.34457">
        <ele>102.858</ele>
        <time>2013-04-19T17:05:04Z</time>
      </trkpt>
      <trkpt lat="44.80379" lon="0.34461">
        <ele>104.612</ele>
        <time>2013-04-19T17:05:09Z</time>
      </trkpt>
      <trkpt lat="44.80369" lon="0.34462">
        <ele>106.295</ele>
        <time>2013-04-19T17:05:14Z</time>
      </trkpt>
      <trkpt lat="44.80358" lon="0.34465">
        <ele>107.135</ele>
        <time>2013-04-19T17:05:19Z</time>
      </trkpt>
      <trkpt lat="44.80347" lon="0.34466">
        <ele>107.403</ele>
        <time>2013-04-19T17:05:24Z</time>
      </trkpt>
      <trkpt lat="44.80337" lon="0.34466">
        <ele>107.428</ele>
        <time>2013-04-19T17:05:29Z</time>
      </trkpt>
      <trkpt lat="44.80326" lon="0.34464">
        <ele>107.37</ele>
        <time>2013-04-19T17:05:34Z</time>
      </trkpt>
      <trkpt lat="44.80317" lon="0.34461">
        <ele>107.319</ele>
        <time>2013-04-19T17:05:38Z</time>
      </trkpt>
      <trkpt lat="44.80306" lon="0.3446">
        <ele>107.202</ele>
        <time>2013-04-19T17:05:43Z</time>
      </trkpt>
      <trkpt lat="44.80294" lon="0.34462">
        <ele>106.95</ele>
        <time>2013-04-19T17:05:47Z</time>
      </trkpt>
      <trkpt lat="44.80285" lon="0.34465">
        <ele>106.698</ele>
        <time>2013-04-19T17:05:51Z</time>
      </trkpt>
      <trkpt lat="44.80274" lon="0.3447">
        <ele>106.465</ele>
        <time>2013-04-19T17:05:56Z</time>
      </trkpt>
      <trkpt lat="44.80265" lon="0.34474">
        <ele>106.149</ele>
        <time>2013-04-19T17:06:00Z</time>
      </trkpt>
      <trkpt lat="44.80256" lon="0.34477">
        <ele>105.864</ele>
        <time>2013-04-19T17:06:05Z</time>
      </trkpt>
      <trkpt lat="44.80247" lon="0.3448">
        <ele>105.741</ele>
        <time>2013-04-19T17:06:09Z</time>
      </trkpt>
      <trkpt lat="44.80237" lon="0.34484">
        <ele>105.71</ele>
        <time>2013-04-19T17:06:13Z</time>
      </trkpt>
      <trkpt lat="44.80228" lon="0.34488">
        <ele>105.58</ele>
        <time>2013-04-19T17:06:17Z</time>
      </trkpt>
      <trkpt lat="44.80218" lon="0.34493">
        <ele>105.283</ele>
        <time>2013-04-19T17:06:21Z</time>
      </trkpt>
      <trkpt lat="44.80209" lon="0.34497">
        <ele>105.119</ele>
        <time>2013-04-19T17:06:25Z</time>
      </trkpt>
      <trkpt lat="44.802" lon="0.345">
        <ele>105.361</ele>
        <time>2013-04-19T17:06:29Z</time>
      </trkpt>
      <trkpt lat="44.8019" lon="0.34501">
        <ele>105.813</ele>
        <time>2013-04-19T17:06:33Z</time>
      </trkpt>
      <trkpt lat="44.8018" lon="0.34499">
        <ele>106.139</ele>
        <time>2013-04-19T17:06:38Z</time>
      </trkpt>
      <trkpt lat="44.8017" lon="0.34493">
        <ele>106.255</ele>
        <time>2013-04-19T17:06:43Z</time>
      </trkpt>
      <trkpt lat="44.80162" lon="0.34487">
        <ele>106.361</ele>
        <time>2013-04-19T17:06:47Z</time>
      </trkpt>
      <trkpt lat="44.80152" lon="0.3448">
        <ele>106.505</ele>
        <time>2013-04-19T17:06:52Z</time>
      </trkpt>
      <trkpt lat="44.80144" lon="0.34474">
        <ele>106.316</ele>
        <time>2013-04-19T17:06:56Z</time>
      </trkpt>
      <trkpt lat="44.80134" lon="0.3447">
        <ele>105.705</ele>
        <time>2013-04-19T17:07:01Z</time>
      </trkpt>
      <trkpt lat="44.80124" lon="0.34464">
        <ele>105.13</ele>
        <time>2013-04-19T17:07:05Z</time>
      </trkpt>
      <trkpt lat="44.80114" lon="0.34457">
        <ele>104.934</ele>
        <time>2013-04-19T17:07:10Z</time>
      </trkpt>
      <trkpt lat="44.80104" lon="0.34451">
        <ele>105.092</ele>
        <time>2013-04-19T17:07:15Z</time>
      </trkpt>
      <trkpt lat="44.80096" lon="0.34443">
        <ele>105.371</ele>
        <time>2013-04-19T17:07:19Z</time>
      </trkpt>
      <trkpt lat="44.80101" lon="0.34432">
        <ele>105.62</ele>
        <time>2013-04-19T17:07:25Z</time>
      </trkpt>
      <trkpt lat="44.80111" lon="0.34423">
        <ele>105.887</ele>
        <time>2013-04-19T17:07:30Z</time>
      </trkpt>
      <trkpt lat="44.80117" lon="0.34413">
        <ele>106.166</ele>
        <time>2013-04-19T17:07:35Z</time>
      </trkpt>
      <trkpt lat="44.80125" lon="0.34405">
        <ele>106.404</ele>
        <time>2013-04-19T17:07:38Z</time>
      </trkpt>
      <trkpt lat="44.80132" lon="0.34394">
        <ele>106.714</ele>
        <time>2013-04-19T17:07:43Z</time>
      </trkpt>
      <trkpt lat="44.8014" lon="0.34386">
        <ele>107.137</ele>
        <time>2013-04-19T17:07:47Z</time>
      </trkpt>
      <trkpt lat="44.8015" lon="0.34378">
        <ele>107.483</ele>
        <time>2013-04-19T17:07:51Z</time>
      </trkpt>
      <trkpt lat="44.8016" lon="0.34368">
        <ele>107.63</ele>
        <time>2013-04-19T17:07:55Z</time>
      </trkpt>
      <trkpt lat="44.80169" lon="0.34359">
        <ele>107.636</ele>
        <time>2013-04-19T17:07:59Z</time>
      </trkpt>
      <trkpt lat="44.80177" lon="0.34354">
        <ele>107.592</ele>
        <time>2013-04-19T17:08:03Z</time>
      </trkpt>
      <trkpt lat="44.80187" lon="0.34351">
        <ele>107.391</ele>
        <time>2013-04-19T17:08:07Z</time>
      </trkpt>
      <trkpt lat="44.80197" lon="0.34352">
        <ele>106.687</ele>
        <time>2013-04-19T17:08:10Z</time>
      </trkpt>
      <trkpt lat="44.80207" lon="0.34353">
        <ele>105.401</ele>
        <time>2013-04-19T17:08:14Z</time>
      </trkpt>
      <trkpt lat="44.80218" lon="0.34356">
        <ele>104.056</ele>
        <time>2013-04-19T17:08:18Z</time>
      </trkpt>
      <trkpt lat="44.80228" lon="0.34359">
        <ele>102.932</ele>
        <time>2013-04-19T17:08:22Z</time>
      </trkpt>
      <trkpt lat="44.80239" lon="0.34361">
        <ele>101.7</ele>
        <time>2013-04-19T17:08:25Z</time>
      </trkpt>
      <trkpt lat="44.80248" lon="0.34362">
        <ele>100.221</ele>
        <time>2013-04-19T17:08:28Z</time>
      </trkpt>
      <trkpt lat="44.80259" lon="0.34362">
        <ele>98.805</ele>
        <time>2013-04-19T17:08:32Z</time>
      </trkpt>
      <trkpt lat="44.80269" lon="0.3436">
        <ele>97.681</ele>
        <time>2013-04-19T17:08:36Z</time>
      </trkpt>
      <trkpt lat="44.80278" lon="0.34357">
        <ele>96.921</ele>
        <time>2013-04-19T17:08:39Z</time>
      </trkpt>
      <trkpt lat="44.80288" lon="0.34354">
        <ele>96.524</ele>
        <time>2013-04-19T17:08:43Z</time>
      </trkpt>
      <trkpt lat="44.80298" lon="0.3435">
        <ele>96.407</ele>
        <time>2013-04-19T17:08:47Z</time>
      </trkpt>
      <trkpt lat="44.80308" lon="0.34346">
        <ele>96.414</ele>
        <time>2013-04-19T17:08:51Z</time>
      </trkpt>
      <trkpt lat="44.80319" lon="0.34343">
        <ele>96.443</ele>
        <time>2013-04-19T17:08:55Z</time>
      </trkpt>
      <trkpt lat="44.80329" lon="0.3434">
        <ele>96.082</ele>
        <time>2013-04-19T17:09:00Z</time>
      </trkpt>
      <trkpt lat="44.8034" lon="0.34338">
        <ele>95.096</ele>
        <time>2013-04-19T17:09:04Z</time>
      </trkpt>
      <trkpt lat="44.80349" lon="0.34335">
        <ele>94.075</ele>
        <time>2013-04-19T17:09:08Z</time>
      </trkpt>
      <trkpt lat="44.80358" lon="0.34331">
        <ele>93.3</ele>
        <time>2013-04-19T17:09:12Z</time>
      </trkpt>
      <trkpt lat="44.80369" lon="0.3433">
        <ele>92.481</ele>
        <time>2013-04-19T17:09:16Z</time>
      </trkpt>
      <trkpt lat="44.80378" lon="0.34327">
        <ele>91.693</ele>
        <time>2013-04-19T17:09:20Z</time>
      </trkpt>
      <trkpt lat="44.80387" lon="0.34324">
        <ele>91.126</ele>
        <time>2013-04-19T17:09:24Z</time>
      </trkpt>
      <trkpt lat="44.80396" lon="0.3432">
        <ele>90.806</ele>
        <time>2013-04-19T17:09:29Z</time>
      </trkpt>
      <trkpt lat="44.80406" lon="0.34315">
        <ele>90.616</ele>
        <time>2013-04-19T17:09:33Z</time>
      </trkpt>
      <trkpt lat="44.80415" lon="0.34306">
        <ele>90.329</ele>
        <time>2013-04-19T17:09:37Z</time>
      </trkpt>
      <trkpt lat="44.80422" lon="0.34299">
        <ele>90.026</ele>
        <time>2013-04-19T17:09:42Z</time>
      </trkpt>
      <trkpt lat="44.80432" lon="0.34292">
        <ele>89.916</ele>
        <time>2013-04-19T17:09:47Z</time>
      </trkpt>
      <trkpt lat="44.80441" lon="0.34283">
        <ele>89.919</ele>
        <time>2013-04-19T17:09:51Z</time>
      </trkpt>
      <trkpt lat="44.80449" lon="0.34276">
        <ele>89.447</ele>
        <time>2013-04-19T17:09:54Z</time>
      </trkpt>
      <trkpt lat="44.80457" lon="0.34268">
        <ele>88.144</ele>
        <time>2013-04-19T17:09:58Z</time>
      </trkpt>
      <trkpt lat="44.80465" lon="0.34259">
        <ele>86.645</ele>
        <time>2013-04-19T17:10:03Z</time>
      </trkpt>
      <trkpt lat="44.80472" lon="0.3425">
        <ele>85.032</ele>
        <time>2013-04-19T17:10:07Z</time>
      </trkpt>
      <trkpt lat="44.8048" lon="0.34241">
        <ele>82.712</ele>
        <time>2013-04-19T17:10:11Z</time>
      </trkpt>
      <trkpt lat="44.80489" lon="0.34233">
        <ele>80.344</ele>
        <time>2013-04-19T17:10:15Z</time>
      </trkpt>
      <trkpt lat="44.80499" lon="0.34225">
        <ele>78.997</ele>
        <time>2013-04-19T17:10:19Z</time>
      </trkpt>
      <trkpt lat="44.80508" lon="0.34216">
        <ele>78.588</ele>
        <time>2013-04-19T17:10:23Z</time>
      </trkpt>
      <trkpt lat="44.80517" lon="0.34208">
        <ele>78.616</ele>
        <time>2013-04-19T17:10:27Z</time>
      </trkpt>
      <trkpt lat="44.80525" lon="0.342">
        <ele>78.75</ele>
        <time>2013-04-19T17:10:31Z</time>
      </trkpt>
      <trkpt lat="44.80532" lon="0.34191">
        <ele>78.87</ele>
        <time>2013-04-19T17:10:35Z</time>
      </trkpt>
      <trkpt lat="44.80542" lon="0.34182">
        <ele>78.939</ele>
        <time>2013-04-19T17:10:39Z</time>
      </trkpt>
      <trkpt lat="44.80551" lon="0.34174">
        <ele>78.821</ele>
        <time>2013-04-19T17:10:43Z</time>
      </trkpt>
      <trkpt lat="44.80559" lon="0.34167">
        <ele>78.491</ele>
        <time>2013-04-19T17:10:47Z</time>
      </trkpt>
      <trkpt lat="44.80568" lon="0.34158">
        <ele>78.418</ele>
        <time>2013-04-19T17:10:52Z</time>
      </trkpt>
      <trkpt lat="44.80577" lon="0.3415">
        <ele>78.947</ele>
        <time>2013-04-19T17:10:57Z</time>
      </trkpt>
      <trkpt lat="44.80586" lon="0.34141">
        <ele>79.707</ele>
        <time>2013-04-19T17:11:01Z</time>
      </trkpt>
      <trkpt lat="44.80594" lon="0.34133">
        <ele>79.732</ele>
        <time>2013-04-19T17:11:05Z</time>
      </trkpt>
      <trkpt lat="44.80602" lon="0.34126">
        <ele>79.337</ele>
        <time>2013-04-19T17:11:09Z</time>
      </trkpt>
      <trkpt lat="44.8061" lon="0.34118">
        <ele>79.776</ele>
        <time>2013-04-19T17:11:13Z</time>
      </trkpt>
      <trkpt lat="44.80619" lon="0.3411">
        <ele>80.608</ele>
        <time>2013-04-19T17:11:17Z</time>
      </trkpt>
      <trkpt lat="44.80626" lon="0.34102">
        <ele>80.226</ele>
        <time>2013-04-19T17:11:21Z</time>
      </trkpt>
      <trkpt lat="44.80634" lon="0.34095">
        <ele>78.699</ele>
        <time>2013-04-19T17:11:25Z</time>
      </trkpt>
      <trkpt lat="44.80642" lon="0.34086">
        <ele>77.244</ele>
        <time>2013-04-19T17:11:29Z</time>
      </trkpt>
      <trkpt lat="44.80651" lon="0.34078">
        <ele>76.697</ele>
        <time>2013-04-19T17:11:33Z</time>
      </trkpt>
      <trkpt lat="44.80658" lon="0.34068">
        <ele>76.945</ele>
        <time>2013-04-19T17:11:37Z</time>
      </trkpt>
      <trkpt lat="44.80667" lon="0.34058">
        <ele>77.288</ele>
        <time>2013-04-19T17:11:41Z</time>
      </trkpt>
      <trkpt lat="44.80675" lon="0.34048">
        <ele>77.215</ele>
        <time>2013-04-19T17:11:45Z</time>
      </trkpt>
      <trkpt lat="44.80682" lon="0.34037">
        <ele>76.765</ele>
        <time>2013-04-19T17:11:49Z</time>
      </trkpt>
      <trkpt lat="44.80688" lon="0.34025">
        <ele>76.056</ele>
        <time>2013-04-19T17:11:53Z</time>
      </trkpt>
      <trkpt lat="44.80693" lon="0.34014">
        <ele>75.194</ele>
        <time>2013-04-19T17:11:57Z</time>
      </trkpt>
      <trkpt lat="44.80697" lon="0.34001">
        <ele>74.434</ele>
        <time>2013-04-19T17:12:01Z</time>
      </trkpt>
      <trkpt lat="44.80702" lon="0.3399">
        <ele>73.939</ele>
        <time>2013-04-19T17:12:04Z</time>
      </trkpt>
      <trkpt lat="44.80708" lon="0.33976">
        <ele>73.587</ele>
        <time>2013-04-19T17:12:08Z</time>
      </trkpt>
      <trkpt lat="44.80715" lon="0.33964">
        <ele>73.294</ele>
        <time>2013-04-19T17:12:12Z</time>
      </trkpt>
      <trkpt lat="44.80723" lon="0.33952">
        <ele>73.13</ele>
        <time>2013-04-19T17:12:16Z</time>
      </trkpt>
      <trkpt lat="44.8073" lon="0.33941">
        <ele>73.034</ele>
        <time>2013-04-19T17:12:20Z</time>
      </trkpt>
      <trkpt lat="44.80737" lon="0.33934">
        <ele>72.943</ele>
        <time>2013-04-19T17:12:24Z</time>
      </trkpt>
      <trkpt lat="44.80744" lon="0.33923">
        <ele>72.772</ele>
        <time>2013-04-19T17:12:28Z</time>
      </trkpt>
      <trkpt lat="44.80753" lon="0.33913">
        <ele>72.431</ele>
        <time>2013-04-19T17:12:32Z</time>
      </trkpt>
      <trkpt lat="44.8076" lon="0.33906">
        <ele>72.118</ele>
        <time>2013-04-19T17:12:36Z</time>
      </trkpt>
      <trkpt lat="44.8077" lon="0.33898">
        <ele>72.022</ele>
        <time>2013-04-19T17:12:40Z</time>
      </trkpt>
      <trkpt lat="44.8078" lon="0.3389">
        <ele>72.125</ele>
        <time>2013-04-19T17:12:45Z</time>
      </trkpt>
      <trkpt lat="44.80789" lon="0.33882">
        <ele>72.304</ele>
        <time>2013-04-19T17:12:49Z</time>
      </trkpt>
      <trkpt lat="44.80796" lon="0.33874">
        <ele>72.4</ele>
        <time>2013-04-19T17:12:53Z</time>
      </trkpt>
      <trkpt lat="44.80804" lon="0.33866">
        <ele>72.383</ele>
        <time>2013-04-19T17:12:57Z</time>
      </trkpt>
      <trkpt lat="44.80813" lon="0.3386">
        <ele>72.342</ele>
        <time>2013-04-19T17:13:01Z</time>
      </trkpt>
      <trkpt lat="44.80823" lon="0.33857">
        <ele>71.894</ele>
        <time>2013-04-19T17:13:04Z</time>
      </trkpt>
      <trkpt lat="44.80833" lon="0.33851">
        <ele>70.55</ele>
        <time>2013-04-19T17:13:07Z</time>
      </trkpt>
      <trkpt lat="44.80842" lon="0.33846">
        <ele>68.686</ele>
        <time>2013-04-19T17:13:10Z</time>
      </trkpt>
      <trkpt lat="44.80852" lon="0.3384">
        <ele>66.833</ele>
        <time>2013-04-19T17:13:14Z</time>
      </trkpt>
      <trkpt lat="44.80862" lon="0.33832">
        <ele>65.008</ele>
        <time>2013-04-19T17:13:18Z</time>
      </trkpt>
      <trkpt lat="44.80871" lon="0.33827">
        <ele>63.504</ele>
        <time>2013-04-19T17:13:22Z</time>
      </trkpt>
      <trkpt lat="44.8088" lon="0.33821">
        <ele>62.729</ele>
        <time>2013-04-19T17:13:26Z</time>
      </trkpt>
      <trkpt lat="44.80889" lon="0.33814">
        <ele>62.57</ele>
        <time>2013-04-19T17:13:30Z</time>
      </trkpt>
      <trkpt lat="44.80897" lon="0.33808">
        <ele>62.835</ele>
        <time>2013-04-19T17:13:34Z</time>
      </trkpt>
      <trkpt lat="44.80906" lon="0.33803">
        <ele>63.219</ele>
        <time>2013-04-19T17:13:37Z</time>
      </trkpt>
      <trkpt lat="44.80914" lon="0.33796">
        <ele>63.292</ele>
        <time>2013-04-19T17:13:41Z</time>
      </trkpt>
      <trkpt lat="44.80924" lon="0.33791">
        <ele>63.069</ele>
        <time>2013-04-19T17:13:45Z</time>
      </trkpt>
      <trkpt lat="44.80933" lon="0.33788">
        <ele>62.628</ele>
        <time>2013-04-19T17:13:48Z</time>
      </trkpt>
      <trkpt lat="44.80943" lon="0.33787">
        <ele>61.688</ele>
        <time>2013-04-19T17:13:51Z</time>
      </trkpt>
      <trkpt lat="44.80953" lon="0.33788">
        <ele>60.462</ele>
        <time>2013-04-19T17:13:55Z</time>
      </trkpt>
      <trkpt lat="44.80962" lon="0.33789">
        <ele>59.593</ele>
        <time>2013-04-19T17:13:58Z</time>
      </trkpt>
      <trkpt lat="44.80972" lon="0.3379">
        <ele>59.208</ele>
        <time>2013-04-19T17:14:02Z</time>
      </trkpt>
      <trkpt lat="44.80982" lon="0.3379">
        <ele>58.902</ele>
        <time>2013-04-19T17:14:06Z</time>
      </trkpt>
      <trkpt lat="44.80982" lon="0.3379">
        <ele>58.493</ele>
        <time>2013-04-19T17:14:08Z</time>
      </trkpt>
      <trkpt lat="44.80992" lon="0.3379">
        <ele>58.16</ele>
        <time>2013-04-19T17:14:10Z</time>
      </trkpt>
      <trkpt lat="44.81003" lon="0.3379">
        <ele>58.026</ele>
        <time>2013-04-19T17:14:15Z</time>
      </trkpt>
      <trkpt lat="44.81003" lon="0.3379">
        <ele>58.003</ele>
        <time>2013-04-19T17:14:19Z</time>
      </trkpt>
      <trkpt lat="44.81012" lon="0.3379">
        <ele>57.975</ele>
        <time>2013-04-19T17:14:20Z</time>
      </trkpt>
      <trkpt lat="44.81021" lon="0.3379">
        <ele>57.724</ele>
        <time>2013-04-19T17:14:24Z</time>
      </trkpt>
      <trkpt lat="44.81031" lon="0.33791">
        <ele>57.074</ele>
        <time>2013-04-19T17:14:28Z</time>
      </trkpt>
      <trkpt lat="44.81041" lon="0.33791">
        <ele>56.224</ele>
        <time>2013-04-19T17:14:32Z</time>
      </trkpt>
      <trkpt lat="44.8105" lon="0.33792">
        <ele>55.337</ele>
        <time>2013-04-19T17:14:36Z</time>
      </trkpt>
      <trkpt lat="44.81059" lon="0.33791">
        <ele>54.435</ele>
        <time>2013-04-19T17:14:40Z</time>
      </trkpt>
      <trkpt lat="44.8107" lon="0.33791">
        <ele>53.784</ele>
        <time>2013-04-19T17:14:44Z</time>
      </trkpt>
      <trkpt lat="44.81081" lon="0.33792">
        <ele>53.547</ele>
        <time>2013-04-19T17:14:48Z</time>
      </trkpt>
      <trkpt lat="44.81091" lon="0.33792">
        <ele>53.546</ele>
        <time>2013-04-19T17:14:52Z</time>
      </trkpt>
      <trkpt lat="44.81102" lon="0.33792">
        <ele>53.587</ele>
        <time>2013-04-19T17:14:57Z</time>
      </trkpt>
      <trkpt lat="44.81112" lon="0.33792">
        <ele>53.581</ele>
        <time>2013-04-19T17:15:01Z</time>
      </trkpt>
      <trkpt lat="44.81122" lon="0.33793">
        <ele>53.545</ele>
        <time>2013-04-19T17:15:05Z</time>
      </trkpt>
      <trkpt lat="44.81132" lon="0.33793">
        <ele>53.289</ele>
        <time>2013-04-19T17:15:09Z</time>
      </trkpt>
      <trkpt lat="44.81143" lon="0.33793">
        <ele>52.439</ele>
        <time>2013-04-19T17:15:13Z</time>
      </trkpt>
      <trkpt lat="44.81153" lon="0.33794">
        <ele>51.152</ele>
        <time>2013-04-19T17:15:17Z</time>
      </trkpt>
      <trkpt lat="44.81164" lon="0.33793">
        <ele>50.066</ele>
        <time>2013-04-19T17:15:21Z</time>
      </trkpt>
      <trkpt lat="44.81173" lon="0.33794">
        <ele>49.069</ele>
        <time>2013-04-19T17:15:25Z</time>
      </trkpt>
      <trkpt lat="44.81184" lon="0.33794">
        <ele>47.783</ele>
        <time>2013-04-19T17:15:29Z</time>
      </trkpt>
      <trkpt lat="44.81194" lon="0.33795">
        <ele>46.35</ele>
        <time>2013-04-19T17:15:33Z</time>
      </trkpt>
      <trkpt lat="44.81204" lon="0.33799">
        <ele>44.96</ele>
        <time>2013-04-19T17:15:37Z</time>
      </trkpt>
      <trkpt lat="44.81214" lon="0.338">
        <ele>43.827</ele>
        <time>2013-04-19T17:15:41Z</time>
      </trkpt>
      <trkpt lat="44.81225" lon="0.33803">
        <ele>43.074</ele>
        <time>2013-04-19T17:15:45Z</time>
      </trkpt>
      <trkpt lat="44.81234" lon="0.33804">
        <ele>42.45</ele>
        <time>2013-04-19T17:15:49Z</time>
      </trkpt>
      <trkpt lat="44.81245" lon="0.33807">
        <ele>41.9</ele>
        <time>2013-04-19T17:15:54Z</time>
      </trkpt>
      <trkpt lat="44.81255" lon="0.33809">
        <ele>41.525</ele>
        <time>2013-04-19T17:15:58Z</time>
      </trkpt>
      <trkpt lat="44.81264" lon="0.3381">
        <ele>41.333</ele>
        <time>2013-04-19T17:16:02Z</time>
      </trkpt>
      <trkpt lat="44.81276" lon="0.3381">
        <ele>41.152</ele>
        <time>2013-04-19T17:16:06Z</time>
      </trkpt>
      <trkpt lat="44.81286" lon="0.33813">
        <ele>40.917</ele>
        <time>2013-04-19T17:16:10Z</time>
      </trkpt>
      <trkpt lat="44.81297" lon="0.33817">
        <ele>40.856</ele>
        <time>2013-04-19T17:16:14Z</time>
      </trkpt>
      <trkpt lat="44.81307" lon="0.33818">
        <ele>40.878</ele>
        <time>2013-04-19T17:16:18Z</time>
      </trkpt>
      <trkpt lat="44.81316" lon="0.3382">
        <ele>40.581</ele>
        <time>2013-04-19T17:16:22Z</time>
      </trkpt>
      <trkpt lat="44.81328" lon="0.33822">
        <ele>40.013</ele>
        <time>2013-04-19T17:16:26Z</time>
      </trkpt>
      <trkpt lat="44.81338" lon="0.33823">
        <ele>39.548</ele>
        <time>2013-04-19T17:16:30Z</time>
      </trkpt>
      <trkpt lat="44.81347" lon="0.33823">
        <ele>39.417</ele>
        <time>2013-04-19T17:16:34Z</time>
      </trkpt>
      <trkpt lat="44.81356" lon="0.33822">
        <ele>39.555</ele>
        <time>2013-04-19T17:16:38Z</time>
      </trkpt>
      <trkpt lat="44.81366" lon="0.33821">
        <ele>39.752</ele>
        <time>2013-04-19T17:16:42Z</time>
      </trkpt>
      <trkpt lat="44.81376" lon="0.33819">
        <ele>39.869</ele>
        <time>2013-04-19T17:16:46Z</time>
      </trkpt>
      <trkpt lat="44.81385" lon="0.3382">
        <ele>39.913</ele>
        <time>2013-04-19T17:16:50Z</time>
      </trkpt>
      <trkpt lat="44.81395" lon="0.3382">
        <ele>39.913</ele>
        <time>2013-04-19T17:16:54Z</time>
      </trkpt>
      <trkpt lat="44.81406" lon="0.3382">
        <ele>39.743</ele>
        <time>2013-04-19T17:16:58Z</time>
      </trkpt>
      <trkpt lat="44.81416" lon="0.33821">
        <ele>39.237</ele>
        <time>2013-04-19T17:17:02Z</time>
      </trkpt>
      <trkpt lat="44.81427" lon="0.33824">
        <ele>38.548</ele>
        <time>2013-04-19T17:17:06Z</time>
      </trkpt>
      <trkpt lat="44.81438" lon="0.33826">
        <ele>37.943</ele>
        <time>2013-04-19T17:17:10Z</time>
      </trkpt>
      <trkpt lat="44.81449" lon="0.33828">
        <ele>37.43</ele>
        <time>2013-04-19T17:17:14Z</time>
      </trkpt>
      <trkpt lat="44.8146" lon="0.33831">
        <ele>36.979</ele>
        <time>2013-04-19T17:17:18Z</time>
      </trkpt>
      <trkpt lat="44.8147" lon="0.33834">
        <ele>36.684</ele>
        <time>2013-04-19T17:17:23Z</time>
      </trkpt>
      <trkpt lat="44.81481" lon="0.33837">
        <ele>36.4</ele>
        <time>2013-04-19T17:17:27Z</time>
      </trkpt>
      <trkpt lat="44.81491" lon="0.33839">
        <ele>35.883</ele>
        <time>2013-04-19T17:17:31Z</time>
      </trkpt>
      <trkpt lat="44.815" lon="0.33841">
        <ele>35.283</ele>
        <time>2013-04-19T17:17:35Z</time>
      </trkpt>
      <trkpt lat="44.81509" lon="0.33844">
        <ele>34.902</ele>
        <time>2013-04-19T17:17:39Z</time>
      </trkpt>
      <trkpt lat="44.8152" lon="0.33847">
        <ele>34.759</ele>
        <time>2013-04-19T17:17:43Z</time>
      </trkpt>
      <trkpt lat="44.81531" lon="0.33849">
        <ele>34.744</ele>
        <time>2013-04-19T17:17:47Z</time>
      </trkpt>
      <trkpt lat="44.81542" lon="0.33852">
        <ele>34.696</ele>
        <time>2013-04-19T17:17:52Z</time>
      </trkpt>
      <trkpt lat="44.81552" lon="0.33854">
        <ele>34.499</ele>
        <time>2013-04-19T17:17:56Z</time>
      </trkpt>
      <trkpt lat="44.81561" lon="0.33857">
        <ele>34.237</ele>
        <time>2013-04-19T17:18:00Z</time>
      </trkpt>
      <trkpt lat="44.81571" lon="0.33859">
        <ele>34.068</ele>
        <time>2013-04-19T17:18:04Z</time>
      </trkpt>
      <trkpt lat="44.81581" lon="0.33862">
        <ele>34.016</ele>
        <time>2013-04-19T17:18:08Z</time>
      </trkpt>
      <trkpt lat="44.81592" lon="0.33864">
        <ele>34.024</ele>
        <time>2013-04-19T17:18:12Z</time>
      </trkpt>
      <trkpt lat="44.81604" lon="0.33866">
        <ele>33.874</ele>
        <time>2013-04-19T17:18:17Z</time>
      </trkpt>
      <trkpt lat="44.81614" lon="0.33868">
        <ele>33.442</ele>
        <time>2013-04-19T17:18:21Z</time>
      </trkpt>
      <trkpt lat="44.81623" lon="0.33873">
        <ele>33.152</ele>
        <time>2013-04-19T17:18:25Z</time>
      </trkpt>
      <trkpt lat="44.81632" lon="0.33875">
        <ele>33.199</ele>
        <time>2013-04-19T17:18:29Z</time>
      </trkpt>
      <trkpt lat="44.81643" lon="0.33878">
        <ele>33.176</ele>
        <time>2013-04-19T17:18:33Z</time>
      </trkpt>
      <trkpt lat="44.81653" lon="0.3388">
        <ele>33.091</ele>
        <time>2013-04-19T17:18:37Z</time>
      </trkpt>
      <trkpt lat="44.81664" lon="0.33883">
        <ele>33.24</ele>
        <time>2013-04-19T17:18:41Z</time>
      </trkpt>
      <trkpt lat="44.81674" lon="0.33885">
        <ele>33.487</ele>
        <time>2013-04-19T17:18:45Z</time>
      </trkpt>
      <trkpt lat="44.81683" lon="0.33887">
        <ele>33.218</ele>
        <time>2013-04-19T17:18:49Z</time>
      </trkpt>
      <trkpt lat="44.81694" lon="0.3389">
        <ele>32.182</ele>
        <time>2013-04-19T17:18:54Z</time>
      </trkpt>
      <trkpt lat="44.81706" lon="0.33888">
        <ele>31.48</ele>
        <time>2013-04-19T17:18:59Z</time>
      </trkpt>
      <trkpt lat="44.81715" lon="0.33884">
        <ele>31.567</ele>
        <time>2013-04-19T17:19:03Z</time>
      </trkpt>
      <trkpt lat="44.81724" lon="0.33877">
        <ele>31.425</ele>
        <time>2013-04-19T17:19:07Z</time>
      </trkpt>
      <trkpt lat="44.81733" lon="0.33869">
        <ele>30.976</ele>
        <time>2013-04-19T17:19:11Z</time>
      </trkpt>
      <trkpt lat="44.81741" lon="0.33858">
        <ele>30.912</ele>
        <time>2013-04-19T17:19:15Z</time>
      </trkpt>
      <trkpt lat="44.81748" lon="0.33847">
        <ele>31.183</ele>
        <time>2013-04-19T17:19:19Z</time>
      </trkpt>
      <trkpt lat="44.81754" lon="0.33836">
        <ele>31.524</ele>
        <time>2013-04-19T17:19:23Z</time>
      </trkpt>
      <trkpt lat="44.8176" lon="0.33824">
        <ele>31.768</ele>
        <time>2013-04-19T17:19:27Z</time>
      </trkpt>
      <trkpt lat="44.81764" lon="0.33813">
        <ele>31.855</ele>
        <time>2013-04-19T17:19:30Z</time>
      </trkpt>
      <trkpt lat="44.81769" lon="0.33801">
        <ele>31.913</ele>
        <time>2013-04-19T17:19:34Z</time>
      </trkpt>
      <trkpt lat="44.81773" lon="0.33789">
        <ele>32.047</ele>
        <time>2013-04-19T17:19:39Z</time>
      </trkpt>
      <trkpt lat="44.81778" lon="0.33778">
        <ele>32.248</ele>
        <time>2013-04-19T17:19:42Z</time>
      </trkpt>
      <trkpt lat="44.81784" lon="0.33765">
        <ele>32.462</ele>
        <time>2013-04-19T17:19:46Z</time>
      </trkpt>
      <trkpt lat="44.81789" lon="0.33753">
        <ele>32.733</ele>
        <time>2013-04-19T17:19:50Z</time>
      </trkpt>
      <trkpt lat="44.81795" lon="0.33741">
        <ele>33.174</ele>
        <time>2013-04-19T17:19:54Z</time>
      </trkpt>
      <trkpt lat="44.818" lon="0.3373">
        <ele>33.73</ele>
        <time>2013-04-19T17:19:58Z</time>
      </trkpt>
      <trkpt lat="44.81806" lon="0.33717">
        <ele>34.221</ele>
        <time>2013-04-19T17:20:02Z</time>
      </trkpt>
      <trkpt lat="44.81812" lon="0.33705">
        <ele>34.569</ele>
        <time>2013-04-19T17:20:07Z</time>
      </trkpt>
      <trkpt lat="44.81817" lon="0.33692">
        <ele>34.691</ele>
        <time>2013-04-19T17:20:10Z</time>
      </trkpt>
      <trkpt lat="44.81823" lon="0.33679">
        <ele>34.546</ele>
        <time>2013-04-19T17:20:14Z</time>
      </trkpt>
      <trkpt lat="44.81828" lon="0.33668">
        <ele>34.163</ele>
        <time>2013-04-19T17:20:18Z</time>
      </trkpt>
      <trkpt lat="44.81832" lon="0.33656">
        <ele>33.522</ele>
        <time>2013-04-19T17:20:22Z</time>
      </trkpt>
      <trkpt lat="44.81837" lon="0.33643">
        <ele>32.605</ele>
        <time>2013-04-19T17:20:26Z</time>
      </trkpt>
      <trkpt lat="44.81842" lon="0.33632">
        <ele>31.646</ele>
        <time>2013-04-19T17:20:30Z</time>
      </trkpt>
      <trkpt lat="44.81848" lon="0.3362">
        <ele>31.01</ele>
        <time>2013-04-19T17:20:34Z</time>
      </trkpt>
      <trkpt lat="44.81854" lon="0.33606">
        <ele>30.79</ele>
        <time>2013-04-19T17:20:38Z</time>
      </trkpt>
      <trkpt lat="44.81859" lon="0.33592">
        <ele>30.793</ele>
        <time>2013-04-19T17:20:42Z</time>
      </trkpt>
      <trkpt lat="44.81863" lon="0.33579">
        <ele>31.103</ele>
        <time>2013-04-19T17:20:47Z</time>
      </trkpt>
      <trkpt lat="44.81868" lon="0.33564">
        <ele>31.787</ele>
        <time>2013-04-19T17:20:51Z</time>
      </trkpt>
      <trkpt lat="44.81873" lon="0.33551">
        <ele>32.453</ele>
        <time>2013-04-19T17:20:55Z</time>
      </trkpt>
      <trkpt lat="44.81878" lon="0.33539">
        <ele>32.764</ele>
        <time>2013-04-19T17:21:00Z</time>
      </trkpt>
      <trkpt lat="44.81884" lon="0.33528">
        <ele>32.807</ele>
        <time>2013-04-19T17:21:04Z</time>
      </trkpt>
      <trkpt lat="44.8189" lon="0.33517">
        <ele>32.751</ele>
        <time>2013-04-19T17:21:09Z</time>
      </trkpt>
      <trkpt lat="44.81895" lon="0.33505">
        <ele>32.636</ele>
        <time>2013-04-19T17:21:13Z</time>
      </trkpt>
      <trkpt lat="44.81902" lon="0.33495">
        <ele>32.452</ele>
        <time>2013-04-19T17:21:19Z</time>
      </trkpt>
      <trkpt lat="44.81913" lon="0.33493">
        <ele>32.282</ele>
        <time>2013-04-19T17:21:24Z</time>
      </trkpt>
      <trkpt lat="44.81923" lon="0.33493">
        <ele>32.202</ele>
        <time>2013-04-19T17:21:28Z</time>
      </trkpt>
      <trkpt lat="44.81934" lon="0.33496">
        <ele>32.186</ele>
        <time>2013-04-19T17:21:33Z</time>
      </trkpt>
      <trkpt lat="44.81943" lon="0.33498">
        <ele>32.193</ele>
        <time>2013-04-19T17:21:37Z</time>
      </trkpt>
      <trkpt lat="44.81953" lon="0.33501">
        <ele>32.193</ele>
        <time>2013-04-19T17:21:42Z</time>
      </trkpt>
      <trkpt lat="44.81963" lon="0.33506">
        <ele>32.187</ele>
        <time>2013-04-19T17:21:46Z</time>
      </trkpt>
      <trkpt lat="44.81973" lon="0.3351">
        <ele>32.182</ele>
        <time>2013-04-19T17:21:50Z</time>
      </trkpt>
      <trkpt lat="44.81982" lon="0.33516">
        <ele>32.222</ele>
        <time>2013-04-19T17:21:54Z</time>
      </trkpt>
      <trkpt lat="44.81991" lon="0.33522">
        <ele>32.289</ele>
        <time>2013-04-19T17:21:58Z</time>
      </trkpt>
      <trkpt lat="44.82" lon="0.33527">
        <ele>32.292</ele>
        <time>2013-04-19T17:22:02Z</time>
      </trkpt>
      <trkpt lat="44.82009" lon="0.33535">
        <ele>32.276</ele>
        <time>2013-04-19T17:22:07Z</time>
      </trkpt>
      <trkpt lat="44.82018" lon="0.3354">
        <ele>32.21</ele>
        <time>2013-04-19T17:22:11Z</time>
      </trkpt>
      <trkpt lat="44.82027" lon="0.33545">
        <ele>32.097</ele>
        <time>2013-04-19T17:22:15Z</time>
      </trkpt>
      <trkpt lat="44.82036" lon="0.33551">
        <ele>32.012</ele>
        <time>2013-04-19T17:22:19Z</time>
      </trkpt>
      <trkpt lat="44.82046" lon="0.33558">
        <ele>31.87</ele>
        <time>2013-04-19T17:22:24Z</time>
      </trkpt>
      <trkpt lat="44.82055" lon="0.33565">
        <ele>31.7</ele>
        <time>2013-04-19T17:22:28Z</time>
      </trkpt>
      <trkpt lat="44.82064" lon="0.33571">
        <ele>31.804</ele>
        <time>2013-04-19T17:22:32Z</time>
      </trkpt>
      <trkpt lat="44.82075" lon="0.33577">
        <ele>32.181</ele>
        <time>2013-04-19T17:22:36Z</time>
      </trkpt>
      <trkpt lat="44.82084" lon="0.33583">
        <ele>32.749</ele>
        <time>2013-04-19T17:22:40Z</time>
      </trkpt>
      <trkpt lat="44.82093" lon="0.33588">
        <ele>33.441</ele>
        <time>2013-04-19T17:22:45Z</time>
      </trkpt>
      <trkpt lat="44.82103" lon="0.33594">
        <ele>34.002</ele>
        <time>2013-04-19T17:22:50Z</time>
      </trkpt>
      <trkpt lat="44.82113" lon="0.33599">
        <ele>34.226</ele>
        <time>2013-04-19T17:22:54Z</time>
      </trkpt>
      <trkpt lat="44.82122" lon="0.33605">
        <ele>33.982</ele>
        <time>2013-04-19T17:22:58Z</time>
      </trkpt>
      <trkpt lat="44.82131" lon="0.3361">
        <ele>33.212</ele>
        <time>2013-04-19T17:23:02Z</time>
      </trkpt>
      <trkpt lat="44.8214" lon="0.33616">
        <ele>32.23</ele>
        <time>2013-04-19T17:23:06Z</time>
      </trkpt>
      <trkpt lat="44.82149" lon="0.33621">
        <ele>31.426</ele>
        <time>2013-04-19T17:23:10Z</time>
      </trkpt>
      <trkpt lat="44.82158" lon="0.33627">
        <ele>30.948</ele>
        <time>2013-04-19T17:23:14Z</time>
      </trkpt>
      <trkpt lat="44.82167" lon="0.33632">
        <ele>30.601</ele>
        <time>2013-04-19T17:23:18Z</time>
      </trkpt>
      <trkpt lat="44.82176" lon="0.33637">
        <ele>30.076</ele>
        <time>2013-04-19T17:23:22Z</time>
      </trkpt>
      <trkpt lat="44.82184" lon="0.33643">
        <ele>29.44</ele>
        <time>2013-04-19T17:23:26Z</time>
      </trkpt>
      <trkpt lat="44.82193" lon="0.3365">
        <ele>28.944</ele>
        <time>2013-04-19T17:23:30Z</time>
      </trkpt>
      <trkpt lat="44.82203" lon="0.33655">
        <ele>28.69</ele>
        <time>2013-04-19T17:23:34Z</time>
      </trkpt>
      <trkpt lat="44.82211" lon="0.33662">
        <ele>28.702</ele>
        <time>2013-04-19T17:23:38Z</time>
      </trkpt>
      <trkpt lat="44.8222" lon="0.33668">
        <ele>28.901</ele>
        <time>2013-04-19T17:23:42Z</time>
      </trkpt>
      <trkpt lat="44.82229" lon="0.33675">
        <ele>29.167</ele>
        <time>2013-04-19T17:23:46Z</time>
      </trkpt>
      <trkpt lat="44.82238" lon="0.33681">
        <ele>29.418</ele>
        <time>2013-04-19T17:23:50Z</time>
      </trkpt>
      <trkpt lat="44.82247" lon="0.33686">
        <ele>29.611</ele>
        <time>2013-04-19T17:23:54Z</time>
      </trkpt>
      <trkpt lat="44.82256" lon="0.33692">
        <ele>29.869</ele>
        <time>2013-04-19T17:23:58Z</time>
      </trkpt>
      <trkpt lat="44.82266" lon="0.33699">
        <ele>30.396</ele>
        <time>2013-04-19T17:24:03Z</time>
      </trkpt>
      <trkpt lat="44.82276" lon="0.33705">
        <ele>31.081</ele>
        <time>2013-04-19T17:24:08Z</time>
      </trkpt>
      <trkpt lat="44.82286" lon="0.33709">
        <ele>31.601</ele>
        <time>2013-04-19T17:24:12Z</time>
      </trkpt>
      <trkpt lat="44.82297" lon="0.33712">
        <ele>32.055</ele>
        <time>2013-04-19T17:24:16Z</time>
      </trkpt>
      <trkpt lat="44.82307" lon="0.3371">
        <ele>32.674</ele>
        <time>2013-04-19T17:24:21Z</time>
      </trkpt>
      <trkpt lat="44.82318" lon="0.33708">
        <ele>33.241</ele>
        <time>2013-04-19T17:24:25Z</time>
      </trkpt>
      <trkpt lat="44.82328" lon="0.33704">
        <ele>33.26</ele>
        <time>2013-04-19T17:24:29Z</time>
      </trkpt>
      <trkpt lat="44.82339" lon="0.33698">
        <ele>32.687</ele>
        <time>2013-04-19T17:24:34Z</time>
      </trkpt>
      <trkpt lat="44.82349" lon="0.33692">
        <ele>31.961</ele>
        <time>2013-04-19T17:24:38Z</time>
      </trkpt>
      <trkpt lat="44.8236" lon="0.33685">
        <ele>31.397</ele>
        <time>2013-04-19T17:24:43Z</time>
      </trkpt>
      <trkpt lat="44.82369" lon="0.3368">
        <ele>30.866</ele>
        <time>2013-04-19T17:24:47Z</time>
      </trkpt>
      <trkpt lat="44.82379" lon="0.33676">
        <ele>30.288</ele>
        <time>2013-04-19T17:24:51Z</time>
      </trkpt>
      <trkpt lat="44.8239" lon="0.33674">
        <ele>29.846</ele>
        <time>2013-04-19T17:24:56Z</time>
      </trkpt>
      <trkpt lat="44.824" lon="0.33673">
        <ele>29.714</ele>
        <time>2013-04-19T17:25:00Z</time>
      </trkpt>
      <trkpt lat="44.82409" lon="0.33675">
        <ele>29.782</ele>
        <time>2013-04-19T17:25:04Z</time>
      </trkpt>
      <trkpt lat="44.82421" lon="0.33677">
        <ele>29.86</ele>
        <time>2013-04-19T17:25:09Z</time>
      </trkpt>
      <trkpt lat="44.82432" lon="0.33678">
        <ele>29.878</ele>
        <time>2013-04-19T17:25:13Z</time>
      </trkpt>
      <trkpt lat="44.82441" lon="0.33679">
        <ele>29.859</ele>
        <time>2013-04-19T17:25:17Z</time>
      </trkpt>
      <trkpt lat="44.82451" lon="0.33681">
        <ele>29.971</ele>
        <time>2013-04-19T17:25:21Z</time>
      </trkpt>
      <trkpt lat="44.8246" lon="0.33682">
        <ele>30.303</ele>
        <time>2013-04-19T17:25:25Z</time>
      </trkpt>
      <trkpt lat="44.8247" lon="0.33682">
        <ele>30.526</ele>
        <time>2013-04-19T17:25:29Z</time>
      </trkpt>
      <trkpt lat="44.82481" lon="0.33682">
        <ele>30.366</ele>
        <time>2013-04-19T17:25:33Z</time>
      </trkpt>
      <trkpt lat="44.82491" lon="0.3368">
        <ele>30.055</ele>
        <time>2013-04-19T17:25:38Z</time>
      </trkpt>
      <trkpt lat="44.825" lon="0.33679">
        <ele>29.868</ele>
        <time>2013-04-19T17:25:41Z</time>
      </trkpt>
      <trkpt lat="44.82511" lon="0.33677">
        <ele>29.815</ele>
        <time>2013-04-19T17:25:45Z</time>
      </trkpt>
      <trkpt lat="44.82521" lon="0.33676">
        <ele>29.825</ele>
        <time>2013-04-19T17:25:49Z</time>
      </trkpt>
      <trkpt lat="44.82532" lon="0.33674">
        <ele>29.841</ele>
        <time>2013-04-19T17:25:54Z</time>
      </trkpt>
      <trkpt lat="44.82543" lon="0.33672">
        <ele>29.776</ele>
        <time>2013-04-19T17:25:59Z</time>
      </trkpt>
      <trkpt lat="44.82553" lon="0.33669">
        <ele>29.53</ele>
        <time>2013-04-19T17:26:03Z</time>
      </trkpt>
      <trkpt lat="44.82563" lon="0.33666">
        <ele>29.181</ele>
        <time>2013-04-19T17:26:07Z</time>
      </trkpt>
      <trkpt lat="44.82572" lon="0.33662">
        <ele>28.987</ele>
        <time>2013-04-19T17:26:11Z</time>
      </trkpt>
      <trkpt lat="44.82583" lon="0.33657">
        <ele>29.126</ele>
        <time>2013-04-19T17:26:16Z</time>
      </trkpt>
      <trkpt lat="44.82592" lon="0.33653">
        <ele>29.542</ele>
        <time>2013-04-19T17:26:20Z</time>
      </trkpt>
      <trkpt lat="44.82601" lon="0.33649">
        <ele>29.873</ele>
        <time>2013-04-19T17:26:24Z</time>
      </trkpt>
      <trkpt lat="44.82611" lon="0.33645">
        <ele>29.952</ele>
        <time>2013-04-19T17:26:28Z</time>
      </trkpt>
      <trkpt lat="44.82622" lon="0.33641">
        <ele>30.033</ele>
        <time>2013-04-19T17:26:32Z</time>
      </trkpt>
      <trkpt lat="44.8263" lon="0.33636">
        <ele>30.209</ele>
        <time>2013-04-19T17:26:36Z</time>
      </trkpt>
      <trkpt lat="44.82639" lon="0.33632">
        <ele>30.318</ele>
        <time>2013-04-19T17:26:40Z</time>
      </trkpt>
      <trkpt lat="44.82648" lon="0.33627">
        <ele>30.588</ele>
        <time>2013-04-19T17:26:44Z</time>
      </trkpt>
      <trkpt lat="44.82658" lon="0.33622">
        <ele>30.967</ele>
        <time>2013-04-19T17:26:48Z</time>
      </trkpt>
      <trkpt lat="44.82668" lon="0.33619">
        <ele>31.213</ele>
        <time>2013-04-19T17:26:52Z</time>
      </trkpt>
      <trkpt lat="44.82679" lon="0.33616">
        <ele>31.256</ele>
        <time>2013-04-19T17:26:56Z</time>
      </trkpt>
      <trkpt lat="44.82689" lon="0.33612">
        <ele>31.018</ele>
        <time>2013-04-19T17:27:00Z</time>
      </trkpt>
      <trkpt lat="44.827" lon="0.33609">
        <ele>30.97</ele>
        <time>2013-04-19T17:27:05Z</time>
      </trkpt>
      <trkpt lat="44.82709" lon="0.33604">
        <ele>31.434</ele>
        <time>2013-04-19T17:27:10Z</time>
      </trkpt>
      <trkpt lat="44.82712" lon="0.33591">
        <ele>31.566</ele>
        <time>2013-04-19T17:27:14Z</time>
      </trkpt>
      <trkpt lat="44.82713" lon="0.33578">
        <ele>31.142</ele>
        <time>2013-04-19T17:27:18Z</time>
      </trkpt>
      <trkpt lat="44.82712" lon="0.33563">
        <ele>30.821</ele>
        <time>2013-04-19T17:27:22Z</time>
      </trkpt>
      <trkpt lat="44.82711" lon="0.33549">
        <ele>30.779</ele>
        <time>2013-04-19T17:27:26Z</time>
      </trkpt>
      <trkpt lat="44.8271" lon="0.33536">
        <ele>30.869</ele>
        <time>2013-04-19T17:27:30Z</time>
      </trkpt>
      <trkpt lat="44.8271" lon="0.33536">
        <ele>30.973</ele>
        <time>2013-04-19T17:27:32Z</time>
      </trkpt>
      <trkpt lat="44.82708" lon="0.33523">
        <ele>31.001</ele>
        <time>2013-04-19T17:27:34Z</time>
      </trkpt>
      <trkpt lat="44.82706" lon="0.33509">
        <ele>30.963</ele>
        <time>2013-04-19T17:27:38Z</time>
      </trkpt>
      <trkpt lat="44.82705" lon="0.33493">
        <ele>30.955</ele>
        <time>2013-04-19T17:27:42Z</time>
      </trkpt>
      <trkpt lat="44.82705" lon="0.33493">
        <ele>30.987</ele>
        <time>2013-04-19T17:27:42Z</time>
      </trkpt>
      <trkpt lat="44.82703" lon="0.33478">
        <ele>31.043</ele>
        <time>2013-04-19T17:27:47Z</time>
      </trkpt>
      <trkpt lat="44.82702" lon="0.33463">
        <ele>31.113</ele>
        <time>2013-04-19T17:27:51Z</time>
      </trkpt>
      <trkpt lat="44.827" lon="0.3345">
        <ele>31.175</ele>
        <time>2013-04-19T17:27:55Z</time>
      </trkpt>
      <trkpt lat="44.82699" lon="0.33436">
        <ele>31.23</ele>
        <time>2013-04-19T17:27:59Z</time>
      </trkpt>
      <trkpt lat="44.82699" lon="0.33422">
        <ele>31.368</ele>
        <time>2013-04-19T17:28:03Z</time>
      </trkpt>
      <trkpt lat="44.82699" lon="0.33406">
        <ele>31.608</ele>
        <time>2013-04-19T17:28:07Z</time>
      </trkpt>
      <trkpt lat="44.82699" lon="0.33392">
        <ele>31.831</ele>
        <time>2013-04-19T17:28:11Z</time>
      </trkpt>
      <trkpt lat="44.82696" lon="0.33378">
        <ele>31.816</ele>
        <time>2013-04-19T17:28:15Z</time>
      </trkpt>
      <trkpt lat="44.82694" lon="0.33364">
        <ele>31.414</ele>
        <time>2013-04-19T17:28:19Z</time>
      </trkpt>
      <trkpt lat="44.82692" lon="0.33351">
        <ele>30.788</ele>
        <time>2013-04-19T17:28:23Z</time>
      </trkpt>
      <trkpt lat="44.8269" lon="0.33337">
        <ele>30.316</ele>
        <time>2013-04-19T17:28:27Z</time>
      </trkpt>
      <trkpt lat="44.82689" lon="0.33323">
        <ele>30.14</ele>
        <time>2013-04-19T17:28:31Z</time>
      </trkpt>
      <trkpt lat="44.82688" lon="0.3331">
        <ele>30.338</ele>
        <time>2013-04-19T17:28:34Z</time>
      </trkpt>
      <trkpt lat="44.82686" lon="0.33297">
        <ele>30.962</ele>
        <time>2013-04-19T17:28:38Z</time>
      </trkpt>
      <trkpt lat="44.82684" lon="0.33283">
        <ele>31.8</ele>
        <time>2013-04-19T17:28:42Z</time>
      </trkpt>
      <trkpt lat="44.82683" lon="0.33267">
        <ele>32.527</ele>
        <time>2013-04-19T17:28:46Z</time>
      </trkpt>
      <trkpt lat="44.82682" lon="0.33254">
        <ele>32.966</ele>
        <time>2013-04-19T17:28:50Z</time>
      </trkpt>
      <trkpt lat="44.82681" lon="0.33241">
        <ele>33.284</ele>
        <time>2013-04-19T17:28:55Z</time>
      </trkpt>
      <trkpt lat="44.8268" lon="0.33227">
        <ele>33.723</ele>
        <time>2013-04-19T17:28:59Z</time>
      </trkpt>
      <trkpt lat="44.82679" lon="0.33213">
        <ele>34.044</ele>
        <time>2013-04-19T17:29:03Z</time>
      </trkpt>
      <trkpt lat="44.82679" lon="0.33199">
        <ele>33.921</ele>
        <time>2013-04-19T17:29:07Z</time>
      </trkpt>
      <trkpt lat="44.82679" lon="0.33183">
        <ele>33.3</ele>
        <time>2013-04-19T17:29:11Z</time>
      </trkpt>
      <trkpt lat="44.82677" lon="0.33168">
        <ele>32.406</ele>
        <time>2013-04-19T17:29:15Z</time>
      </trkpt>
      <trkpt lat="44.82676" lon="0.33153">
        <ele>31.633</ele>
        <time>2013-04-19T17:29:20Z</time>
      </trkpt>
      <trkpt lat="44.82676" lon="0.33139">
        <ele>31.163</ele>
        <time>2013-04-19T17:29:24Z</time>
      </trkpt>
      <trkpt lat="44.82676" lon="0.33125">
        <ele>30.92</ele>
        <time>2013-04-19T17:29:28Z</time>
      </trkpt>
      <trkpt lat="44.82675" lon="0.3311">
        <ele>30.842</ele>
        <time>2013-04-19T17:29:32Z</time>
      </trkpt>
      <trkpt lat="44.82675" lon="0.33095">
        <ele>30.882</ele>
        <time>2013-04-19T17:29:37Z</time>
      </trkpt>
      <trkpt lat="44.82674" lon="0.33081">
        <ele>31.063</ele>
        <time>2013-04-19T17:29:41Z</time>
      </trkpt>
      <trkpt lat="44.82672" lon="0.33068">
        <ele>31.359</ele>
        <time>2013-04-19T17:29:45Z</time>
      </trkpt>
      <trkpt lat="44.82671" lon="0.33054">
        <ele>31.781</ele>
        <time>2013-04-19T17:29:49Z</time>
      </trkpt>
      <trkpt lat="44.8267" lon="0.3304">
        <ele>32.338</ele>
        <time>2013-04-19T17:29:52Z</time>
      </trkpt>
      <trkpt lat="44.8267" lon="0.33028">
        <ele>32.811</ele>
        <time>2013-04-19T17:29:56Z</time>
      </trkpt>
      <trkpt lat="44.82669" lon="0.33012">
        <ele>32.957</ele>
        <time>2013-04-19T17:30:00Z</time>
      </trkpt>
      <trkpt lat="44.82669" lon="0.32998">
        <ele>32.692</ele>
        <time>2013-04-19T17:30:04Z</time>
      </trkpt>
      <trkpt lat="44.8267" lon="0.32984">
        <ele>32.069</ele>
        <time>2013-04-19T17:30:08Z</time>
      </trkpt>
      <trkpt lat="44.82671" lon="0.32969">
        <ele>31.353</ele>
        <time>2013-04-19T17:30:13Z</time>
      </trkpt>
      <trkpt lat="44.82671" lon="0.32953">
        <ele>30.817</ele>
        <time>2013-04-19T17:30:17Z</time>
      </trkpt>
      <trkpt lat="44.82671" lon="0.3294">
        <ele>30.56</ele>
        <time>2013-04-19T17:30:21Z</time>
      </trkpt>
      <trkpt lat="44.82671" lon="0.32925">
        <ele>30.662</ele>
        <time>2013-04-19T17:30:25Z</time>
      </trkpt>
      <trkpt lat="44.82671" lon="0.32912">
        <ele>31.076</ele>
        <time>2013-04-19T17:30:29Z</time>
      </trkpt>
      <trkpt lat="44.82671" lon="0.32899">
        <ele>31.592</ele>
        <time>2013-04-19T17:30:32Z</time>
      </trkpt>
      <trkpt lat="44.82672" lon="0.32883">
        <ele>32.039</ele>
        <time>2013-04-19T17:30:37Z</time>
      </trkpt>
      <trkpt lat="44.82677" lon="0.32872">
        <ele>32.4</ele>
        <time>2013-04-19T17:30:41Z</time>
      </trkpt>
      <trkpt lat="44.82688" lon="0.32869">
        <ele>32.669</ele>
        <time>2013-04-19T17:30:45Z</time>
      </trkpt>
      <trkpt lat="44.82698" lon="0.32871">
        <ele>32.756</ele>
        <time>2013-04-19T17:30:49Z</time>
      </trkpt>
      <trkpt lat="44.82708" lon="0.32875">
        <ele>32.799</ele>
        <time>2013-04-19T17:30:53Z</time>
      </trkpt>
      <trkpt lat="44.82718" lon="0.32879">
        <ele>33.079</ele>
        <time>2013-04-19T17:30:57Z</time>
      </trkpt>
      <trkpt lat="44.82728" lon="0.32882">
        <ele>33.502</ele>
        <time>2013-04-19T17:31:01Z</time>
      </trkpt>
      <trkpt lat="44.82738" lon="0.32885">
        <ele>33.806</ele>
        <time>2013-04-19T17:31:05Z</time>
      </trkpt>
      <trkpt lat="44.82749" lon="0.32889">
        <ele>33.914</ele>
        <time>2013-04-19T17:31:10Z</time>
      </trkpt>
      <trkpt lat="44.82757" lon="0.32894">
        <ele>33.842</ele>
        <time>2013-04-19T17:31:14Z</time>
      </trkpt>
      <trkpt lat="44.82766" lon="0.32898">
        <ele>33.722</ele>
        <time>2013-04-19T17:31:18Z</time>
      </trkpt>
      <trkpt lat="44.82775" lon="0.32904">
        <ele>33.377</ele>
        <time>2013-04-19T17:31:23Z</time>
      </trkpt>
      <trkpt lat="44.82785" lon="0.32909">
        <ele>32.643</ele>
        <time>2013-04-19T17:31:27Z</time>
      </trkpt>
      <trkpt lat="44.82793" lon="0.32914">
        <ele>31.914</ele>
        <time>2013-04-19T17:31:31Z</time>
      </trkpt>
      <trkpt lat="44.82804" lon="0.32919">
        <ele>31.576</ele>
        <time>2013-04-19T17:31:35Z</time>
      </trkpt>
      <trkpt lat="44.82813" lon="0.32923">
        <ele>31.529</ele>
        <time>2013-04-19T17:31:38Z</time>
      </trkpt>
      <trkpt lat="44.82823" lon="0.32927">
        <ele>31.425</ele>
        <time>2013-04-19T17:31:42Z</time>
      </trkpt>
      <trkpt lat="44.82832" lon="0.32932">
        <ele>31.28</ele>
        <time>2013-04-19T17:31:47Z</time>
      </trkpt>
      <trkpt lat="44.82842" lon="0.3294">
        <ele>31.531</ele>
        <time>2013-04-19T17:31:51Z</time>
      </trkpt>
      <trkpt lat="44.82846" lon="0.32953">
        <ele>32.051</ele>
        <time>2013-04-19T17:31:57Z</time>
      </trkpt>
      <trkpt lat="44.82844" lon="0.32966">
        <ele>32.042</ele>
        <time>2013-04-19T17:32:01Z</time>
      </trkpt>
      <trkpt lat="44.82842" lon="0.32979">
        <ele>31.305</ele>
        <time>2013-04-19T17:32:05Z</time>
      </trkpt>
      <trkpt lat="44.8284" lon="0.32992">
        <ele>30.362</ele>
        <time>2013-04-19T17:32:09Z</time>
      </trkpt>
      <trkpt lat="44.8284" lon="0.33005">
        <ele>29.721</ele>
        <time>2013-04-19T17:32:13Z</time>
      </trkpt>
      <trkpt lat="44.82838" lon="0.33019">
        <ele>29.504</ele>
        <time>2013-04-19T17:32:17Z</time>
      </trkpt>
      <trkpt lat="44.82834" lon="0.3303">
        <ele>29.523</ele>
        <time>2013-04-19T17:32:21Z</time>
      </trkpt>
      <trkpt lat="44.82834" lon="0.33045">
        <ele>29.558</ele>
        <time>2013-04-19T17:32:26Z</time>
      </trkpt>
      <trkpt lat="44.82839" lon="0.33057">
        <ele>29.62</ele>
        <time>2013-04-19T17:32:32Z</time>
      </trkpt>
      <trkpt lat="44.82848" lon="0.33059">
        <ele>29.86</ele>
        <time>2013-04-19T17:32:36Z</time>
      </trkpt>
      <trkpt lat="44.82849" lon="0.33046">
        <ele>30.313</ele>
        <time>2013-04-19T17:32:43Z</time>
      </trkpt>
      <trkpt lat="44.82847" lon="0.33043">
        <ele>31.007</ele>
        <time>2013-04-19T17:32:47Z</time>
      </trkpt>
    </trkseg>
  </trk>
</gpx>